<?xml version="1.0" encoding="UTF-8"?>
<gpx xmlns="http://www.topografix.com/GPX/1/1" xmlns:adv="http://www.garmin.com/xmlschemas/AdventuresExtensions/v1" xmlns:ctx="http://www.garmin.com/xmlschemas/CreationTimeExtension/v1" xmlns:gpxacc="http://www.garmin.com/xmlschemas/AccelerationExtension/v1" xmlns:gpxpx="http://www.garmin.com/xmlschemas/PowerExtension/v1" xmlns:gpxtpx="http://www.garmin.com/xmlschemas/TrackPointExtension/v1" xmlns:gpxtrx="http://www.garmin.com/xmlschemas/GpxExtensions/v3" xmlns:gpxx="http://www.garmin.com/xmlschemas/GpxExtensions/v3" xmlns:prs="http://www.garmin.com/xmlschemas/PressureExtension/v1" xmlns:tmd="http://www.garmin.com/xmlschemas/TripMetaDataExtensions/v1" xmlns:trp="http://www.garmin.com/xmlschemas/TripExtensions/v1" xmlns:vidx1="http://www.garmin.com/xmlschemas/VideoExtension/v1" xmlns:vptm="http://www.garmin.com/xmlschemas/ViaPointTransportationModeExtensions/v1" xmlns:wptx1="http://www.garmin.com/xmlschemas/WaypointExtension/v1" xmlns:xsi="http://www.w3.org/2001/XMLSchema-instance" xsi:schemaLocation="http://www.topografix.com/GPX/1/1 http://www.topografix.com/GPX/1/1/gpx.xsd http://www.garmin.com/xmlschemas/WaypointExtension/v1 http://www8.garmin.com/xmlschemas/WaypointExtensionv1.xsd http://www.garmin.com/xmlschemas/TrackPointExtension/v1 http://www.garmin.com/xmlschemas/TrackPointExtensionv1.xsd http://www.garmin.com/xmlschemas/GpxExtensions/v3 http://www8.garmin.com/xmlschemas/GpxExtensionsv3.xsd http://www.garmin.com/xmlschemas/ActivityExtension/v1 http://www8.garmin.com/xmlschemas/ActivityExtensionv1.xsd http://www.garmin.com/xmlschemas/AdventuresExtensions/v1 http://www8.garmin.com/xmlschemas/AdventuresExtensionv1.xsd http://www.garmin.com/xmlschemas/PressureExtension/v1 http://www.garmin.com/xmlschemas/PressureExtensionv1.xsd http://www.garmin.com/xmlschemas/TripExtensions/v1 http://www.garmin.com/xmlschemas/TripExtensionsv1.xsd http://www.garmin.com/xmlschemas/TripMetaDataExtensions/v1 http://www.garmin.com/xmlschemas/TripMetaDataExtensionsv1.xsd http://www.garmin.com/xmlschemas/ViaPointTransportationModeExtensions/v1 http://www.garmin.com/xmlschemas/ViaPointTransportationModeExtensionsv1.xsd http://www.garmin.com/xmlschemas/CreationTimeExtension/v1 http://www.garmin.com/xmlschemas/CreationTimeExtensionsv1.xsd http://www.garmin.com/xmlschemas/AccelerationExtension/v1 http://www.garmin.com/xmlschemas/AccelerationExtensionv1.xsd http://www.garmin.com/xmlschemas/PowerExtension/v1 http://www.garmin.com/xmlschemas/PowerExtensionv1.xsd http://www.garmin.com/xmlschemas/VideoExtension/v1 http://www.garmin.com/xmlschemas/VideoExtensionv1.xsd" version="1.1" creator="Garmin Desktop App">
  <metadata>
    <link href="http://www.garmin.com">
      <text>Garmin International</text>
    </link>
    <time>2021-05-07T10:37:39Z</time>
    <bounds minlat="45.67490170709789" maxlat="45.692442851141095" minlon="10.464192973449826" maxlon="10.495836837217212"/>
  </metadata>
  <trk>
    <name>496</name>
    <extensions>
      <gpxtrx:TrackExtension>
        <gpxtrx:DisplayColor>Magenta</gpxtrx:DisplayColor>
      </gpxtrx:TrackExtension>
    </extensions>
    <trkseg>
      <trkpt lat="45.67713011987507" lon="10.495198387652636">
        <ele>579.81</ele>
        <time>2021-05-06T08:30:20Z</time>
      </trkpt>
      <trkpt lat="45.67714135162532" lon="10.495100738480687">
        <ele>576.45</ele>
        <time>2021-05-06T08:30:31Z</time>
      </trkpt>
      <trkpt lat="45.677217626944184" lon="10.495035778731108">
        <ele>575.49</ele>
        <time>2021-05-06T08:30:35Z</time>
      </trkpt>
      <trkpt lat="45.6773188803345" lon="10.49494693055749">
        <ele>573.56</ele>
        <time>2021-05-06T08:30:48Z</time>
      </trkpt>
      <trkpt lat="45.677470760419965" lon="10.494997473433614">
        <ele>572.6</ele>
        <time>2021-05-06T08:31:01Z</time>
      </trkpt>
      <trkpt lat="45.677482997998595" lon="10.495005184784532">
        <ele>572.12</ele>
        <time>2021-05-06T08:31:02Z</time>
      </trkpt>
      <trkpt lat="45.67754544317722" lon="10.495068384334445">
        <ele>571.16</ele>
        <time>2021-05-06T08:31:07Z</time>
      </trkpt>
      <trkpt lat="45.6777142547071" lon="10.495301149785519">
        <ele>572.12</ele>
        <time>2021-05-06T08:31:24Z</time>
      </trkpt>
      <trkpt lat="45.67782380618155" lon="10.495377089828253">
        <ele>574.53</ele>
        <time>2021-05-06T08:33:23Z</time>
      </trkpt>
      <trkpt lat="45.67790444009006" lon="10.495356218889356">
        <ele>577.41</ele>
        <time>2021-05-06T08:33:37Z</time>
      </trkpt>
      <trkpt lat="45.67808121442795" lon="10.495324367657304">
        <ele>580.77</ele>
        <time>2021-05-06T08:33:49Z</time>
      </trkpt>
      <trkpt lat="45.678160674870014" lon="10.495370887219906">
        <ele>583.66</ele>
        <time>2021-05-06T08:34:00Z</time>
      </trkpt>
      <trkpt lat="45.678220773115754" lon="10.495310872793198">
        <ele>586.54</ele>
        <time>2021-05-06T08:34:10Z</time>
      </trkpt>
      <trkpt lat="45.67825564183295" lon="10.495249768719077">
        <ele>587.02</ele>
        <time>2021-05-06T08:34:19Z</time>
      </trkpt>
      <trkpt lat="45.678304843604565" lon="10.495162680745125">
        <ele>590.39</ele>
        <time>2021-05-06T08:34:31Z</time>
      </trkpt>
      <trkpt lat="45.67839788272977" lon="10.495130075141788">
        <ele>593.75</ele>
        <time>2021-05-06T08:34:47Z</time>
      </trkpt>
      <trkpt lat="45.67848354578018" lon="10.495202243328094">
        <ele>597.12</ele>
        <time>2021-05-06T08:34:59Z</time>
      </trkpt>
      <trkpt lat="45.67848396487534" lon="10.495324954390526">
        <ele>598.08</ele>
        <time>2021-05-06T08:35:16Z</time>
      </trkpt>
      <trkpt lat="45.67854699678719" lon="10.495305927470326">
        <ele>598.56</ele>
        <time>2021-05-06T08:37:15Z</time>
      </trkpt>
      <trkpt lat="45.6786154769361" lon="10.495346998795867">
        <ele>601.44</ele>
        <time>2021-05-06T08:37:27Z</time>
      </trkpt>
      <trkpt lat="45.67870935425162" lon="10.495335599407554">
        <ele>602.4</ele>
        <time>2021-05-06T08:37:39Z</time>
      </trkpt>
      <trkpt lat="45.67880742251873" lon="10.495330737903714">
        <ele>605.29</ele>
        <time>2021-05-06T08:37:52Z</time>
      </trkpt>
      <trkpt lat="45.67890775389969" lon="10.495393350720406">
        <ele>608.17</ele>
        <time>2021-05-06T08:38:06Z</time>
      </trkpt>
      <trkpt lat="45.678999619558454" lon="10.49546878784895">
        <ele>612.02</ele>
        <time>2021-05-06T08:38:18Z</time>
      </trkpt>
      <trkpt lat="45.67910699173808" lon="10.495582027360797">
        <ele>614.42</ele>
        <time>2021-05-06T08:38:33Z</time>
      </trkpt>
      <trkpt lat="45.679230876266956" lon="10.49569208174944">
        <ele>616.34</ele>
        <time>2021-05-06T08:38:50Z</time>
      </trkpt>
      <trkpt lat="45.679427683353424" lon="10.495831053704023">
        <ele>619.23</ele>
        <time>2021-05-06T08:39:10Z</time>
      </trkpt>
      <trkpt lat="45.67961837165058" lon="10.495836837217212">
        <ele>622.59</ele>
        <time>2021-05-06T08:39:29Z</time>
      </trkpt>
      <trkpt lat="45.67976664751768" lon="10.495791491121054">
        <ele>625.96</ele>
        <time>2021-05-06T08:39:47Z</time>
      </trkpt>
      <trkpt lat="45.67987619899213" lon="10.495651178061962">
        <ele>629.32</ele>
        <time>2021-05-06T08:40:05Z</time>
      </trkpt>
      <trkpt lat="45.679925149306655" lon="10.495574483647943">
        <ele>632.2</ele>
        <time>2021-05-06T08:40:15Z</time>
      </trkpt>
      <trkpt lat="45.67997904494405" lon="10.495439367368817">
        <ele>635.57</ele>
        <time>2021-05-06T08:40:30Z</time>
      </trkpt>
      <trkpt lat="45.68005045875907" lon="10.495278099551797">
        <ele>639.41</ele>
        <time>2021-05-06T08:40:48Z</time>
      </trkpt>
      <trkpt lat="45.68013645708561" lon="10.495100654661655">
        <ele>640.86</ele>
        <time>2021-05-06T08:41:02Z</time>
      </trkpt>
      <trkpt lat="45.68023486062884" lon="10.494974674656987">
        <ele>643.74</ele>
        <time>2021-05-06T08:41:21Z</time>
      </trkpt>
      <trkpt lat="45.68025422282517" lon="10.494987834244967">
        <ele>644.22</ele>
        <time>2021-05-06T08:41:23Z</time>
      </trkpt>
      <trkpt lat="45.68034265190363" lon="10.495038041844964">
        <ele>644.7</ele>
        <time>2021-05-06T08:43:04Z</time>
      </trkpt>
      <trkpt lat="45.68035723641515" lon="10.495037287473679">
        <ele>645.18</ele>
        <time>2021-05-06T08:43:23Z</time>
      </trkpt>
      <trkpt lat="45.680420100688934" lon="10.495058577507734">
        <ele>646.14</ele>
        <time>2021-05-06T08:43:35Z</time>
      </trkpt>
      <trkpt lat="45.68047231994569" lon="10.495032342150807">
        <ele>646.14</ele>
        <time>2021-05-06T08:43:48Z</time>
      </trkpt>
      <trkpt lat="45.680522276088595" lon="10.494915246963501">
        <ele>647.1</ele>
        <time>2021-05-06T08:44:05Z</time>
      </trkpt>
      <trkpt lat="45.680536357685924" lon="10.494894040748477">
        <ele>646.62</ele>
        <time>2021-05-06T08:44:07Z</time>
      </trkpt>
      <trkpt lat="45.680594528093934" lon="10.494819777086377">
        <ele>648.07</ele>
        <time>2021-05-06T08:44:14Z</time>
      </trkpt>
      <trkpt lat="45.68066862411797" lon="10.49473436549306">
        <ele>650.47</ele>
        <time>2021-05-06T08:44:26Z</time>
      </trkpt>
      <trkpt lat="45.680701145902276" lon="10.494702011346817">
        <ele>650.95</ele>
        <time>2021-05-06T08:44:30Z</time>
      </trkpt>
      <trkpt lat="45.680709863081574" lon="10.494692455977201">
        <ele>650.47</ele>
        <time>2021-05-06T08:44:31Z</time>
      </trkpt>
      <trkpt lat="45.68075504153967" lon="10.494630681350827">
        <ele>652.87</ele>
        <time>2021-05-06T08:44:41Z</time>
      </trkpt>
      <trkpt lat="45.68082259967923" lon="10.494549125432968">
        <ele>654.8</ele>
        <time>2021-05-06T08:44:53Z</time>
      </trkpt>
      <trkpt lat="45.68092963658273" lon="10.4944300185889">
        <ele>657.68</ele>
        <time>2021-05-06T08:45:06Z</time>
      </trkpt>
      <trkpt lat="45.68093424662948" lon="10.494397077709436">
        <ele>661.04</ele>
        <time>2021-05-06T08:45:17Z</time>
      </trkpt>
      <trkpt lat="45.68092066794634" lon="10.494382325559855">
        <ele>659.12</ele>
        <time>2021-05-06T08:45:19Z</time>
      </trkpt>
      <trkpt lat="45.680863251909614" lon="10.494417445734143">
        <ele>661.04</ele>
        <time>2021-05-06T08:45:37Z</time>
      </trkpt>
      <trkpt lat="45.68081145174801" lon="10.494454242289066">
        <ele>661.04</ele>
        <time>2021-05-06T08:45:43Z</time>
      </trkpt>
      <trkpt lat="45.68072562105954" lon="10.494512496516109">
        <ele>661.52</ele>
        <time>2021-05-06T08:45:55Z</time>
      </trkpt>
      <trkpt lat="45.68061087280512" lon="10.494499085471034">
        <ele>662.97</ele>
        <time>2021-05-06T08:46:09Z</time>
      </trkpt>
      <trkpt lat="45.68050241097808" lon="10.494418703019619">
        <ele>664.41</ele>
        <time>2021-05-06T08:46:23Z</time>
      </trkpt>
      <trkpt lat="45.68041825667024" lon="10.49432449042797">
        <ele>667.29</ele>
        <time>2021-05-06T08:46:37Z</time>
      </trkpt>
      <trkpt lat="45.68029428832233" lon="10.494254250079393">
        <ele>667.29</ele>
        <time>2021-05-06T08:46:54Z</time>
      </trkpt>
      <trkpt lat="45.68019655533135" lon="10.49422818236053">
        <ele>669.22</ele>
        <time>2021-05-06T08:47:09Z</time>
      </trkpt>
      <trkpt lat="45.680142072960734" lon="10.49419591203332">
        <ele>670.66</ele>
        <time>2021-05-06T08:47:14Z</time>
      </trkpt>
      <trkpt lat="45.68005833774805" lon="10.494148386642337">
        <ele>671.62</ele>
        <time>2021-05-06T08:47:21Z</time>
      </trkpt>
      <trkpt lat="45.67996102385223" lon="10.494134137406945">
        <ele>673.06</ele>
        <time>2021-05-06T08:47:37Z</time>
      </trkpt>
      <trkpt lat="45.67999228835106" lon="10.49408258870244">
        <ele>672.58</ele>
        <time>2021-05-06T08:51:53Z</time>
      </trkpt>
      <trkpt lat="45.67998256534338" lon="10.494031626731157">
        <ele>672.58</ele>
        <time>2021-05-06T08:52:05Z</time>
      </trkpt>
      <trkpt lat="45.67999128252268" lon="10.493955602869391">
        <ele>673.54</ele>
        <time>2021-05-06T08:52:17Z</time>
      </trkpt>
      <trkpt lat="45.68000838160515" lon="10.493929535150528">
        <ele>674.02</ele>
        <time>2021-05-06T08:52:29Z</time>
      </trkpt>
      <trkpt lat="45.68003009073436" lon="10.493889218196273">
        <ele>674.5</ele>
        <time>2021-05-06T08:52:33Z</time>
      </trkpt>
      <trkpt lat="45.6801248062402" lon="10.493687130510807">
        <ele>676.91</ele>
        <time>2021-05-06T08:52:50Z</time>
      </trkpt>
      <trkpt lat="45.68018599413335" lon="10.49355335533619">
        <ele>677.87</ele>
        <time>2021-05-06T08:53:04Z</time>
      </trkpt>
      <trkpt lat="45.68026386201382" lon="10.493403822183609">
        <ele>681.23</ele>
        <time>2021-05-06T08:53:17Z</time>
      </trkpt>
      <trkpt lat="45.68036184646189" lon="10.493316482752562">
        <ele>682.19</ele>
        <time>2021-05-06T08:53:31Z</time>
      </trkpt>
      <trkpt lat="45.680427476763725" lon="10.493186647072434">
        <ele>683.63</ele>
        <time>2021-05-06T08:53:42Z</time>
      </trkpt>
      <trkpt lat="45.68056711927056" lon="10.493131326511502">
        <ele>686.04</ele>
        <time>2021-05-06T08:53:59Z</time>
      </trkpt>
      <trkpt lat="45.68061330355704" lon="10.493032336235046">
        <ele>689.88</ele>
        <time>2021-05-06T08:54:10Z</time>
      </trkpt>
      <trkpt lat="45.68061984144151" lon="10.493025463074446">
        <ele>689.4</ele>
        <time>2021-05-06T08:54:11Z</time>
      </trkpt>
      <trkpt lat="45.68073542788625" lon="10.492925383150578">
        <ele>690.84</ele>
        <time>2021-05-06T08:54:27Z</time>
      </trkpt>
      <trkpt lat="45.68086945451796" lon="10.492871152237058">
        <ele>693.73</ele>
        <time>2021-05-06T08:54:42Z</time>
      </trkpt>
      <trkpt lat="45.68098763935268" lon="10.492781214416027">
        <ele>695.65</ele>
        <time>2021-05-06T08:54:59Z</time>
      </trkpt>
      <trkpt lat="45.681071961298585" lon="10.492647774517536">
        <ele>698.53</ele>
        <time>2021-05-06T08:55:14Z</time>
      </trkpt>
      <trkpt lat="45.68110205233097" lon="10.492622125893831">
        <ele>699.98</ele>
        <time>2021-05-06T08:55:29Z</time>
      </trkpt>
      <trkpt lat="45.68118939176202" lon="10.492524644359946">
        <ele>702.86</ele>
        <time>2021-05-06T08:55:44Z</time>
      </trkpt>
      <trkpt lat="45.68131411448121" lon="10.492468066513538">
        <ele>706.23</ele>
        <time>2021-05-06T08:56:00Z</time>
      </trkpt>
      <trkpt lat="45.68138494156301" lon="10.492434874176979">
        <ele>707.67</ele>
        <time>2021-05-06T08:56:15Z</time>
      </trkpt>
      <trkpt lat="45.68139960989356" lon="10.492550963535905">
        <ele>709.11</ele>
        <time>2021-05-06T08:56:27Z</time>
      </trkpt>
      <trkpt lat="45.681392569094896" lon="10.492559177801013">
        <ele>709.59</ele>
        <time>2021-05-06T08:56:28Z</time>
      </trkpt>
      <trkpt lat="45.68131947889924" lon="10.492675937712193">
        <ele>711.51</ele>
        <time>2021-05-06T08:56:42Z</time>
      </trkpt>
      <trkpt lat="45.68131889216602" lon="10.492825470864773">
        <ele>714.88</ele>
        <time>2021-05-06T08:56:55Z</time>
      </trkpt>
      <trkpt lat="45.681406231597066" lon="10.49286243505776">
        <ele>718.24</ele>
        <time>2021-05-06T08:57:07Z</time>
      </trkpt>
      <trkpt lat="45.68154947832227" lon="10.492781130596995">
        <ele>720.65</ele>
        <time>2021-05-06T08:57:23Z</time>
      </trkpt>
      <trkpt lat="45.68164670839906" lon="10.492685241624713">
        <ele>722.57</ele>
        <time>2021-05-06T08:57:38Z</time>
      </trkpt>
      <trkpt lat="45.68172348663211" lon="10.492626819759607">
        <ele>725.93</ele>
        <time>2021-05-06T08:57:50Z</time>
      </trkpt>
      <trkpt lat="45.681851813569665" lon="10.492553059011698">
        <ele>726.89</ele>
        <time>2021-05-06T08:58:04Z</time>
      </trkpt>
      <trkpt lat="45.6819586828351" lon="10.492426240816712">
        <ele>728.82</ele>
        <time>2021-05-06T08:58:17Z</time>
      </trkpt>
      <trkpt lat="45.681982822716236" lon="10.492391539737582">
        <ele>728.82</ele>
        <time>2021-05-06T08:58:21Z</time>
      </trkpt>
      <trkpt lat="45.68203269504011" lon="10.492233037948608">
        <ele>731.22</ele>
        <time>2021-05-06T08:58:35Z</time>
      </trkpt>
      <trkpt lat="45.682052141055465" lon="10.492067327722907">
        <ele>733.14</ele>
        <time>2021-05-06T08:58:49Z</time>
      </trkpt>
      <trkpt lat="45.68210134282708" lon="10.492014102637768">
        <ele>736.03</ele>
        <time>2021-05-06T08:59:01Z</time>
      </trkpt>
      <trkpt lat="45.68210310302675" lon="10.492012677714229">
        <ele>736.51</ele>
        <time>2021-05-06T09:00:05Z</time>
      </trkpt>
      <trkpt lat="45.68214333616197" lon="10.491943778470159">
        <ele>737.47</ele>
        <time>2021-05-06T09:00:11Z</time>
      </trkpt>
      <trkpt lat="45.682228496298194" lon="10.491881668567657">
        <ele>740.83</ele>
        <time>2021-05-06T09:00:23Z</time>
      </trkpt>
      <trkpt lat="45.682304771617055" lon="10.491817966103554">
        <ele>743.72</ele>
        <time>2021-05-06T09:00:34Z</time>
      </trkpt>
      <trkpt lat="45.682332683354616" lon="10.49176792614162">
        <ele>744.2</ele>
        <time>2021-05-06T09:00:39Z</time>
      </trkpt>
      <trkpt lat="45.6824698112905" lon="10.491593750193715">
        <ele>745.16</ele>
        <time>2021-05-06T09:00:55Z</time>
      </trkpt>
      <trkpt lat="45.68261875770986" lon="10.491534657776356">
        <ele>745.64</ele>
        <time>2021-05-06T09:01:10Z</time>
      </trkpt>
      <trkpt lat="45.682767117396" lon="10.491510853171349">
        <ele>747.08</ele>
        <time>2021-05-06T09:01:23Z</time>
      </trkpt>
      <trkpt lat="45.682956129312515" lon="10.491491490975022">
        <ele>749.97</ele>
        <time>2021-05-06T09:01:38Z</time>
      </trkpt>
      <trkpt lat="45.68308630026877" lon="10.491397026926279">
        <ele>750.93</ele>
        <time>2021-05-06T09:01:50Z</time>
      </trkpt>
      <trkpt lat="45.68311505019665" lon="10.49140834249556">
        <ele>750.93</ele>
        <time>2021-05-06T09:03:25Z</time>
      </trkpt>
      <trkpt lat="45.68317900411785" lon="10.491367187350988">
        <ele>752.37</ele>
        <time>2021-05-06T09:03:45Z</time>
      </trkpt>
      <trkpt lat="45.6831936724484" lon="10.491357296705246">
        <ele>752.37</ele>
        <time>2021-05-06T09:03:47Z</time>
      </trkpt>
      <trkpt lat="45.68326751701534" lon="10.491261994466186">
        <ele>753.33</ele>
        <time>2021-05-06T09:04:00Z</time>
      </trkpt>
      <trkpt lat="45.68328998051584" lon="10.491231819614768">
        <ele>752.85</ele>
        <time>2021-05-06T09:04:14Z</time>
      </trkpt>
      <trkpt lat="45.683320574462414" lon="10.491186138242483">
        <ele>752.85</ele>
        <time>2021-05-06T09:04:30Z</time>
      </trkpt>
      <trkpt lat="45.68332811817527" lon="10.491199297830462">
        <ele>752.85</ele>
        <time>2021-05-06T09:04:48Z</time>
      </trkpt>
      <trkpt lat="45.68329316563904" lon="10.49122461117804">
        <ele>753.33</ele>
        <time>2021-05-06T09:05:08Z</time>
      </trkpt>
      <trkpt lat="45.68327556364238" lon="10.491209775209427">
        <ele>752.85</ele>
        <time>2021-05-06T09:05:35Z</time>
      </trkpt>
      <trkpt lat="45.683284029364586" lon="10.491181025281549">
        <ele>753.81</ele>
        <time>2021-05-06T09:05:57Z</time>
      </trkpt>
      <trkpt lat="45.68326131440699" lon="10.491194184869528">
        <ele>754.29</ele>
        <time>2021-05-06T09:06:19Z</time>
      </trkpt>
      <trkpt lat="45.6832660920918" lon="10.491242296993732">
        <ele>753.33</ele>
        <time>2021-05-06T09:06:42Z</time>
      </trkpt>
      <trkpt lat="45.68327874876559" lon="10.491184126585722">
        <ele>754.29</ele>
        <time>2021-05-06T09:07:02Z</time>
      </trkpt>
      <trkpt lat="45.68328042514622" lon="10.491211954504251">
        <ele>753.81</ele>
        <time>2021-05-06T09:07:20Z</time>
      </trkpt>
      <trkpt lat="45.68328822031617" lon="10.491246320307255">
        <ele>753.81</ele>
        <time>2021-05-06T09:07:34Z</time>
      </trkpt>
      <trkpt lat="45.68325821310282" lon="10.491286218166351">
        <ele>753.81</ele>
        <time>2021-05-06T09:07:56Z</time>
      </trkpt>
      <trkpt lat="45.6832280382514" lon="10.491346903145313">
        <ele>753.81</ele>
        <time>2021-05-06T09:08:13Z</time>
      </trkpt>
      <trkpt lat="45.683233235031366" lon="10.49131982959807">
        <ele>753.33</ele>
        <time>2021-05-06T09:08:49Z</time>
      </trkpt>
      <trkpt lat="45.6832573749125" lon="10.491275070235133">
        <ele>754.29</ele>
        <time>2021-05-06T09:09:13Z</time>
      </trkpt>
      <trkpt lat="45.6832626555115" lon="10.491261575371027">
        <ele>753.81</ele>
        <time>2021-05-06T09:09:32Z</time>
      </trkpt>
      <trkpt lat="45.68326039239764" lon="10.491247158497572">
        <ele>753.81</ele>
        <time>2021-05-06T09:09:48Z</time>
      </trkpt>
      <trkpt lat="45.68327598273754" lon="10.49123240634799">
        <ele>754.29</ele>
        <time>2021-05-06T09:10:15Z</time>
      </trkpt>
      <trkpt lat="45.68329308182001" lon="10.491309855133295">
        <ele>753.81</ele>
        <time>2021-05-06T09:10:41Z</time>
      </trkpt>
      <trkpt lat="45.68331252783537" lon="10.491277249529958">
        <ele>753.81</ele>
        <time>2021-05-06T09:11:11Z</time>
      </trkpt>
      <trkpt lat="45.683313785120845" lon="10.491262581199408">
        <ele>754.29</ele>
        <time>2021-05-06T09:11:40Z</time>
      </trkpt>
      <trkpt lat="45.68330976180732" lon="10.491214385256171">
        <ele>754.29</ele>
        <time>2021-05-06T09:12:01Z</time>
      </trkpt>
      <trkpt lat="45.68327489309013" lon="10.491204997524619">
        <ele>754.29</ele>
        <time>2021-05-06T09:12:37Z</time>
      </trkpt>
      <trkpt lat="45.68329894915223" lon="10.491082537919283">
        <ele>755.25</ele>
        <time>2021-05-06T09:12:50Z</time>
      </trkpt>
      <trkpt lat="45.68331319838762" lon="10.490954462438822">
        <ele>758.14</ele>
        <time>2021-05-06T09:13:06Z</time>
      </trkpt>
      <trkpt lat="45.683314790949225" lon="10.490843234583735">
        <ele>761.02</ele>
        <time>2021-05-06T09:13:21Z</time>
      </trkpt>
      <trkpt lat="45.68332141265273" lon="10.490779699757695">
        <ele>761.5</ele>
        <time>2021-05-06T09:13:37Z</time>
      </trkpt>
      <trkpt lat="45.68336885422468" lon="10.490713398903608">
        <ele>762.94</ele>
        <time>2021-05-06T09:13:52Z</time>
      </trkpt>
      <trkpt lat="45.68340824916959" lon="10.490654222667217">
        <ele>765.35</ele>
        <time>2021-05-06T09:14:02Z</time>
      </trkpt>
      <trkpt lat="45.68346742540598" lon="10.490536456927657">
        <ele>767.75</ele>
        <time>2021-05-06T09:14:14Z</time>
      </trkpt>
      <trkpt lat="45.683500031009316" lon="10.490422127768397">
        <ele>770.15</ele>
        <time>2021-05-06T09:14:29Z</time>
      </trkpt>
      <trkpt lat="45.683521404862404" lon="10.490365382283926">
        <ele>772.56</ele>
        <time>2021-05-06T09:14:43Z</time>
      </trkpt>
      <trkpt lat="45.683644535019994" lon="10.49031768925488">
        <ele>774.96</ele>
        <time>2021-05-06T09:14:59Z</time>
      </trkpt>
      <trkpt lat="45.68373807705939" lon="10.490254741162062">
        <ele>776.88</ele>
        <time>2021-05-06T09:15:13Z</time>
      </trkpt>
      <trkpt lat="45.68383480422199" lon="10.490122642368078">
        <ele>779.77</ele>
        <time>2021-05-06T09:15:29Z</time>
      </trkpt>
      <trkpt lat="45.68392482586205" lon="10.490076960995793">
        <ele>781.69</ele>
        <time>2021-05-06T09:15:43Z</time>
      </trkpt>
      <trkpt lat="45.68402641452849" lon="10.490051563829184">
        <ele>784.09</ele>
        <time>2021-05-06T09:15:55Z</time>
      </trkpt>
      <trkpt lat="45.684118531644344" lon="10.490007642656565">
        <ele>786.98</ele>
        <time>2021-05-06T09:16:10Z</time>
      </trkpt>
      <trkpt lat="45.68413705565035" lon="10.48996590077877">
        <ele>787.46</ele>
        <time>2021-05-06T09:16:30Z</time>
      </trkpt>
      <trkpt lat="45.68423965014517" lon="10.489937402307987">
        <ele>789.86</ele>
        <time>2021-05-06T09:16:43Z</time>
      </trkpt>
      <trkpt lat="45.68427611142397" lon="10.489928182214499">
        <ele>790.82</ele>
        <time>2021-05-06T09:16:48Z</time>
      </trkpt>
      <trkpt lat="45.6843903567642" lon="10.48988820053637">
        <ele>794.19</ele>
        <time>2021-05-06T09:17:02Z</time>
      </trkpt>
      <trkpt lat="45.68448079749942" lon="10.489795580506325">
        <ele>796.11</ele>
        <time>2021-05-06T09:17:15Z</time>
      </trkpt>
      <trkpt lat="45.684527065604925" lon="10.489712012931705">
        <ele>798.99</ele>
        <time>2021-05-06T09:17:26Z</time>
      </trkpt>
      <trkpt lat="45.684532010927796" lon="10.489704385399818">
        <ele>799.47</ele>
        <time>2021-05-06T09:17:27Z</time>
      </trkpt>
      <trkpt lat="45.684565203264356" lon="10.489646131172776">
        <ele>800.92</ele>
        <time>2021-05-06T09:17:33Z</time>
      </trkpt>
      <trkpt lat="45.68464022129774" lon="10.489518893882632">
        <ele>803.8</ele>
        <time>2021-05-06T09:17:49Z</time>
      </trkpt>
      <trkpt lat="45.6846974696964" lon="10.48939324915409">
        <ele>806.2</ele>
        <time>2021-05-06T09:18:03Z</time>
      </trkpt>
      <trkpt lat="45.68475689738989" lon="10.48930331133306">
        <ele>809.09</ele>
        <time>2021-05-06T09:18:16Z</time>
      </trkpt>
      <trkpt lat="45.684860749170184" lon="10.489244889467955">
        <ele>811.97</ele>
        <time>2021-05-06T09:18:31Z</time>
      </trkpt>
      <trkpt lat="45.68489067256451" lon="10.489155454561114">
        <ele>815.34</ele>
        <time>2021-05-06T09:18:42Z</time>
      </trkpt>
      <trkpt lat="45.684892516583204" lon="10.489147575572133">
        <ele>815.34</ele>
        <time>2021-05-06T09:18:43Z</time>
      </trkpt>
      <trkpt lat="45.68494356237352" lon="10.489013968035579">
        <ele>817.74</ele>
        <time>2021-05-06T09:23:19Z</time>
      </trkpt>
      <trkpt lat="45.6849461607635" lon="10.48892461694777">
        <ele>822.06</ele>
        <time>2021-05-06T09:26:50Z</time>
      </trkpt>
      <trkpt lat="45.68494305945933" lon="10.4888713080436">
        <ele>821.58</ele>
        <time>2021-05-06T09:27:12Z</time>
      </trkpt>
      <trkpt lat="45.684944819658995" lon="10.488860495388508">
        <ele>822.06</ele>
        <time>2021-05-06T09:27:13Z</time>
      </trkpt>
      <trkpt lat="45.68494549021125" lon="10.488820765167475">
        <ele>824.47</ele>
        <time>2021-05-06T09:27:16Z</time>
      </trkpt>
      <trkpt lat="45.68494951352477" lon="10.488764941692352">
        <ele>823.99</ele>
        <time>2021-05-06T09:27:20Z</time>
      </trkpt>
      <trkpt lat="45.684950686991215" lon="10.488724624738097">
        <ele>823.99</ele>
        <time>2021-05-06T09:27:23Z</time>
      </trkpt>
      <trkpt lat="45.68495965562761" lon="10.488581461831927">
        <ele>824.95</ele>
        <time>2021-05-06T09:27:32Z</time>
      </trkpt>
      <trkpt lat="45.68494607694447" lon="10.488400915637612">
        <ele>827.35</ele>
        <time>2021-05-06T09:27:47Z</time>
      </trkpt>
      <trkpt lat="45.684919003397226" lon="10.488243838772178">
        <ele>829.27</ele>
        <time>2021-05-06T09:27:57Z</time>
      </trkpt>
      <trkpt lat="45.68491380661726" lon="10.488205449655652">
        <ele>829.27</ele>
        <time>2021-05-06T09:28:00Z</time>
      </trkpt>
      <trkpt lat="45.684890085831285" lon="10.487954746931791">
        <ele>831.68</ele>
        <time>2021-05-06T09:28:15Z</time>
      </trkpt>
      <trkpt lat="45.68488799035549" lon="10.48791166394949">
        <ele>833.12</ele>
        <time>2021-05-06T09:28:18Z</time>
      </trkpt>
      <trkpt lat="45.68489419296384" lon="10.487825581803918">
        <ele>830.72</ele>
        <time>2021-05-06T09:28:24Z</time>
      </trkpt>
      <trkpt lat="45.68495336920023" lon="10.487610334530473">
        <ele>836.96</ele>
        <time>2021-05-06T09:28:40Z</time>
      </trkpt>
      <trkpt lat="45.685006929561496" lon="10.487539926543832">
        <ele>836.96</ele>
        <time>2021-05-06T09:28:53Z</time>
      </trkpt>
      <trkpt lat="45.685193259269" lon="10.487488126382232">
        <ele>836.96</ele>
        <time>2021-05-06T09:29:08Z</time>
      </trkpt>
      <trkpt lat="45.685385623946786" lon="10.487406067550182">
        <ele>836.48</ele>
        <time>2021-05-06T09:29:24Z</time>
      </trkpt>
      <trkpt lat="45.68544295616448" lon="10.487289726734161">
        <ele>836.96</ele>
        <time>2021-05-06T09:29:35Z</time>
      </trkpt>
      <trkpt lat="45.68556139245629" lon="10.487096607685089">
        <ele>838.89</ele>
        <time>2021-05-06T09:29:51Z</time>
      </trkpt>
      <trkpt lat="45.68566884845495" lon="10.48690658994019">
        <ele>840.81</ele>
        <time>2021-05-06T09:30:06Z</time>
      </trkpt>
      <trkpt lat="45.68577320314944" lon="10.486684301868081">
        <ele>843.21</ele>
        <time>2021-05-06T09:30:22Z</time>
      </trkpt>
      <trkpt lat="45.68586263805628" lon="10.486485064029694">
        <ele>845.14</ele>
        <time>2021-05-06T09:30:37Z</time>
      </trkpt>
      <trkpt lat="45.68593849427998" lon="10.486283898353577">
        <ele>847.06</ele>
        <time>2021-05-06T09:30:52Z</time>
      </trkpt>
      <trkpt lat="45.6859824154526" lon="10.486177867278457">
        <ele>848.98</ele>
        <time>2021-05-06T09:31:01Z</time>
      </trkpt>
      <trkpt lat="45.68604385480285" lon="10.485986676067114">
        <ele>851.87</ele>
        <time>2021-05-06T09:31:16Z</time>
      </trkpt>
      <trkpt lat="45.686077047139406" lon="10.485880225896835">
        <ele>852.35</ele>
        <time>2021-05-06T09:31:24Z</time>
      </trkpt>
      <trkpt lat="45.68607335910201" lon="10.48580864444375">
        <ele>853.31</ele>
        <time>2021-05-06T09:35:56Z</time>
      </trkpt>
      <trkpt lat="45.686078388243914" lon="10.485767321661115">
        <ele>853.31</ele>
        <time>2021-05-06T09:36:17Z</time>
      </trkpt>
      <trkpt lat="45.686082327738404" lon="10.485772518441081">
        <ele>853.31</ele>
        <time>2021-05-06T09:36:33Z</time>
      </trkpt>
      <trkpt lat="45.68608953617513" lon="10.485754748806357">
        <ele>853.31</ele>
        <time>2021-05-06T09:36:35Z</time>
      </trkpt>
      <trkpt lat="45.68612474016845" lon="10.485670762136579">
        <ele>854.27</ele>
        <time>2021-05-06T09:36:44Z</time>
      </trkpt>
      <trkpt lat="45.686151310801506" lon="10.485581494867802">
        <ele>855.23</ele>
        <time>2021-05-06T09:36:50Z</time>
      </trkpt>
      <trkpt lat="45.68619640544057" lon="10.485512092709541">
        <ele>854.27</ele>
        <time>2021-05-06T09:37:00Z</time>
      </trkpt>
      <trkpt lat="45.68621585145593" lon="10.485503794625401">
        <ele>854.75</ele>
        <time>2021-05-06T09:37:03Z</time>
      </trkpt>
      <trkpt lat="45.68623789586127" lon="10.485456269234419">
        <ele>854.27</ele>
        <time>2021-05-06T09:37:07Z</time>
      </trkpt>
      <trkpt lat="45.68626823835075" lon="10.485407151281834">
        <ele>854.27</ele>
        <time>2021-05-06T09:37:11Z</time>
      </trkpt>
      <trkpt lat="45.6863968167454" lon="10.48527019098401">
        <ele>853.79</ele>
        <time>2021-05-06T09:37:25Z</time>
      </trkpt>
      <trkpt lat="45.68651701323688" lon="10.485158376395702">
        <ele>852.83</ele>
        <time>2021-05-06T09:37:37Z</time>
      </trkpt>
      <trkpt lat="45.68654148839414" lon="10.485119065269828">
        <ele>851.87</ele>
        <time>2021-05-06T09:37:42Z</time>
      </trkpt>
      <trkpt lat="45.686595970764756" lon="10.485094506293535">
        <ele>851.38</ele>
        <time>2021-05-06T09:37:46Z</time>
      </trkpt>
      <trkpt lat="45.68676880560815" lon="10.484917564317584">
        <ele>850.42</ele>
        <time>2021-05-06T09:38:02Z</time>
      </trkpt>
      <trkpt lat="45.68692412227392" lon="10.484743975102901">
        <ele>852.83</ele>
        <time>2021-05-06T09:38:19Z</time>
      </trkpt>
      <trkpt lat="45.68704331293702" lon="10.484587149694562">
        <ele>855.23</ele>
        <time>2021-05-06T09:38:34Z</time>
      </trkpt>
      <trkpt lat="45.687233079224825" lon="10.484434515237808">
        <ele>853.31</ele>
        <time>2021-05-06T09:38:51Z</time>
      </trkpt>
      <trkpt lat="45.6874071713537" lon="10.484328484162688">
        <ele>849.94</ele>
        <time>2021-05-06T09:39:05Z</time>
      </trkpt>
      <trkpt lat="45.68753633648157" lon="10.484187416732311">
        <ele>846.58</ele>
        <time>2021-05-06T09:39:18Z</time>
      </trkpt>
      <trkpt lat="45.68762275390327" lon="10.484031764790416">
        <ele>844.66</ele>
        <time>2021-05-06T09:39:29Z</time>
      </trkpt>
      <trkpt lat="45.68763197399676" lon="10.484008630737662">
        <ele>844.18</ele>
        <time>2021-05-06T09:39:31Z</time>
      </trkpt>
      <trkpt lat="45.68774781189859" lon="10.483812494203448">
        <ele>841.29</ele>
        <time>2021-05-06T09:39:46Z</time>
      </trkpt>
      <trkpt lat="45.68785862065852" lon="10.48357704654336">
        <ele>838.41</ele>
        <time>2021-05-06T09:40:03Z</time>
      </trkpt>
      <trkpt lat="45.687998766079545" lon="10.483496831730008">
        <ele>836.0</ele>
        <time>2021-05-06T09:40:17Z</time>
      </trkpt>
      <trkpt lat="45.68810152821243" lon="10.483322236686945">
        <ele>834.56</ele>
        <time>2021-05-06T09:40:32Z</time>
      </trkpt>
      <trkpt lat="45.688145784661174" lon="10.48329709097743">
        <ele>834.56</ele>
        <time>2021-05-06T09:40:47Z</time>
      </trkpt>
      <trkpt lat="45.68822130560875" lon="10.483140852302313">
        <ele>835.52</ele>
        <time>2021-05-06T09:41:03Z</time>
      </trkpt>
      <trkpt lat="45.688281152397394" lon="10.483062816783786">
        <ele>836.48</ele>
        <time>2021-05-06T09:42:38Z</time>
      </trkpt>
      <trkpt lat="45.68838659673929" lon="10.483169350773096">
        <ele>838.41</ele>
        <time>2021-05-06T09:42:54Z</time>
      </trkpt>
      <trkpt lat="45.68852171301842" lon="10.483224336057901">
        <ele>840.81</ele>
        <time>2021-05-06T09:43:08Z</time>
      </trkpt>
      <trkpt lat="45.688536297529936" lon="10.483236741274595">
        <ele>841.29</ele>
        <time>2021-05-06T09:43:10Z</time>
      </trkpt>
      <trkpt lat="45.688651129603386" lon="10.48329759389162">
        <ele>842.25</ele>
        <time>2021-05-06T09:43:25Z</time>
      </trkpt>
      <trkpt lat="45.68876872770488" lon="10.483374875038862">
        <ele>844.18</ele>
        <time>2021-05-06T09:43:40Z</time>
      </trkpt>
      <trkpt lat="45.688848523423076" lon="10.483420975506306">
        <ele>845.14</ele>
        <time>2021-05-06T09:43:51Z</time>
      </trkpt>
      <trkpt lat="45.68887861445546" lon="10.48345047980547">
        <ele>846.1</ele>
        <time>2021-05-06T09:43:55Z</time>
      </trkpt>
      <trkpt lat="45.68893728777766" lon="10.483487276360393">
        <ele>847.54</ele>
        <time>2021-05-06T09:44:08Z</time>
      </trkpt>
      <trkpt lat="45.68895178847015" lon="10.483441008254886">
        <ele>848.02</ele>
        <time>2021-05-06T09:44:26Z</time>
      </trkpt>
      <trkpt lat="45.688986321911216" lon="10.48339826054871">
        <ele>848.98</ele>
        <time>2021-05-06T09:45:46Z</time>
      </trkpt>
      <trkpt lat="45.689007360488176" lon="10.48332198522985">
        <ele>851.38</ele>
        <time>2021-05-06T09:46:05Z</time>
      </trkpt>
      <trkpt lat="45.689019011333585" lon="10.483269765973091">
        <ele>854.27</ele>
        <time>2021-05-06T09:46:17Z</time>
      </trkpt>
      <trkpt lat="45.689018089324236" lon="10.48316314816475">
        <ele>857.63</ele>
        <time>2021-05-06T09:46:29Z</time>
      </trkpt>
      <trkpt lat="45.68906242959201" lon="10.483012776821852">
        <ele>860.52</ele>
        <time>2021-05-06T09:46:43Z</time>
      </trkpt>
      <trkpt lat="45.68907056003809" lon="10.48300045542419">
        <ele>860.52</ele>
        <time>2021-05-06T09:46:45Z</time>
      </trkpt>
      <trkpt lat="45.68918891251087" lon="10.48294966109097">
        <ele>862.92</ele>
        <time>2021-05-06T09:46:56Z</time>
      </trkpt>
      <trkpt lat="45.68929913453758" lon="10.482889395207167">
        <ele>865.32</ele>
        <time>2021-05-06T09:47:12Z</time>
      </trkpt>
      <trkpt lat="45.68934758193791" lon="10.482773557305336">
        <ele>866.29</ele>
        <time>2021-05-06T09:47:27Z</time>
      </trkpt>
      <trkpt lat="45.689412374049425" lon="10.482756542041898">
        <ele>867.73</ele>
        <time>2021-05-06T09:48:01Z</time>
      </trkpt>
      <trkpt lat="45.68946585059166" lon="10.482734497636557">
        <ele>869.17</ele>
        <time>2021-05-06T09:48:20Z</time>
      </trkpt>
      <trkpt lat="45.6894982047379" lon="10.482718655839562">
        <ele>871.09</ele>
        <time>2021-05-06T09:48:26Z</time>
      </trkpt>
      <trkpt lat="45.68950591608882" lon="10.482717733830214">
        <ele>871.09</ele>
        <time>2021-05-06T09:48:27Z</time>
      </trkpt>
      <trkpt lat="45.689632734283805" lon="10.482639530673623">
        <ele>873.5</ele>
        <time>2021-05-06T09:48:43Z</time>
      </trkpt>
      <trkpt lat="45.689856531098485" lon="10.482504582032561">
        <ele>875.9</ele>
        <time>2021-05-06T09:49:05Z</time>
      </trkpt>
      <trkpt lat="45.689916210249066" lon="10.482462169602513">
        <ele>874.46</ele>
        <time>2021-05-06T09:49:12Z</time>
      </trkpt>
      <trkpt lat="45.690133133903146" lon="10.482334429398179">
        <ele>875.9</ele>
        <time>2021-05-06T09:49:29Z</time>
      </trkpt>
      <trkpt lat="45.690266909077764" lon="10.482237869873643">
        <ele>879.26</ele>
        <time>2021-05-06T09:49:46Z</time>
      </trkpt>
      <trkpt lat="45.690355841070414" lon="10.482156565412879">
        <ele>882.15</ele>
        <time>2021-05-06T09:50:00Z</time>
      </trkpt>
      <trkpt lat="45.69046656601131" lon="10.48209990374744">
        <ele>884.55</ele>
        <time>2021-05-06T09:50:17Z</time>
      </trkpt>
      <trkpt lat="45.69057896733284" lon="10.48201784491539">
        <ele>887.91</ele>
        <time>2021-05-06T09:50:32Z</time>
      </trkpt>
      <trkpt lat="45.69060520268977" lon="10.481932265684009">
        <ele>891.28</ele>
        <time>2021-05-06T09:50:44Z</time>
      </trkpt>
      <trkpt lat="45.69070586934686" lon="10.481807040050626">
        <ele>893.68</ele>
        <time>2021-05-06T09:51:00Z</time>
      </trkpt>
      <trkpt lat="45.6908108945936" lon="10.481666475534439">
        <ele>896.57</ele>
        <time>2021-05-06T09:51:15Z</time>
      </trkpt>
      <trkpt lat="45.690898317843676" lon="10.481477044522762">
        <ele>899.45</ele>
        <time>2021-05-06T09:51:32Z</time>
      </trkpt>
      <trkpt lat="45.69098020903766" lon="10.481313513591886">
        <ele>901.85</ele>
        <time>2021-05-06T09:51:49Z</time>
      </trkpt>
      <trkpt lat="45.69114675745368" lon="10.48115836456418">
        <ele>904.74</ele>
        <time>2021-05-06T09:52:08Z</time>
      </trkpt>
      <trkpt lat="45.69122839719057" lon="10.481065660715103">
        <ele>907.14</ele>
        <time>2021-05-06T09:52:18Z</time>
      </trkpt>
      <trkpt lat="45.69135546684265" lon="10.480913948267698">
        <ele>910.51</ele>
        <time>2021-05-06T09:52:37Z</time>
      </trkpt>
      <trkpt lat="45.69141313433647" lon="10.481029199436307">
        <ele>912.43</ele>
        <time>2021-05-06T09:52:53Z</time>
      </trkpt>
      <trkpt lat="45.69141631945968" lon="10.481193233281374">
        <ele>913.87</ele>
        <time>2021-05-06T09:53:06Z</time>
      </trkpt>
      <trkpt lat="45.69142864085734" lon="10.481286691501737">
        <ele>916.75</ele>
        <time>2021-05-06T09:53:15Z</time>
      </trkpt>
      <trkpt lat="45.69153391756117" lon="10.481435721740127">
        <ele>920.12</ele>
        <time>2021-05-06T09:53:33Z</time>
      </trkpt>
      <trkpt lat="45.691724102944136" lon="10.481529934331775">
        <ele>922.52</ele>
        <time>2021-05-06T09:53:53Z</time>
      </trkpt>
      <trkpt lat="45.69190858863294" lon="10.481621716171503">
        <ele>925.41</ele>
        <time>2021-05-06T09:54:11Z</time>
      </trkpt>
      <trkpt lat="45.69192510098219" lon="10.481640407815576">
        <ele>925.41</ele>
        <time>2021-05-06T09:54:12Z</time>
      </trkpt>
      <trkpt lat="45.692008920013905" lon="10.481707630679011">
        <ele>927.33</ele>
        <time>2021-05-06T09:54:24Z</time>
      </trkpt>
      <trkpt lat="45.69214470684528" lon="10.481750126928091">
        <ele>929.73</ele>
        <time>2021-05-06T09:54:40Z</time>
      </trkpt>
      <trkpt lat="45.692260628566146" lon="10.481838639825583">
        <ele>932.14</ele>
        <time>2021-05-06T09:54:53Z</time>
      </trkpt>
      <trkpt lat="45.69231762550771" lon="10.481969313696027">
        <ele>935.02</ele>
        <time>2021-05-06T09:55:05Z</time>
      </trkpt>
      <trkpt lat="45.69234210066497" lon="10.481980964541435">
        <ele>935.98</ele>
        <time>2021-05-06T09:55:09Z</time>
      </trkpt>
      <trkpt lat="45.692415945231915" lon="10.482092024758458">
        <ele>941.27</ele>
        <time>2021-05-06T09:56:21Z</time>
      </trkpt>
      <trkpt lat="45.692442851141095" lon="10.482029244303703">
        <ele>941.27</ele>
        <time>2021-05-06T09:56:54Z</time>
      </trkpt>
      <trkpt lat="45.69240689277649" lon="10.481930505484343">
        <ele>947.52</ele>
        <time>2021-05-06T10:06:38Z</time>
      </trkpt>
      <trkpt lat="45.69240563549101" lon="10.481854733079672">
        <ele>948.48</ele>
        <time>2021-05-06T10:06:51Z</time>
      </trkpt>
      <trkpt lat="45.69239323027432" lon="10.481707714498043">
        <ele>951.84</ele>
        <time>2021-05-06T10:07:05Z</time>
      </trkpt>
      <trkpt lat="45.692370515316725" lon="10.481546698138118">
        <ele>954.73</ele>
        <time>2021-05-06T10:07:21Z</time>
      </trkpt>
      <trkpt lat="45.69229541346431" lon="10.481352908536792">
        <ele>957.61</ele>
        <time>2021-05-06T10:07:39Z</time>
      </trkpt>
      <trkpt lat="45.692237578332424" lon="10.48118770122528">
        <ele>960.98</ele>
        <time>2021-05-06T10:07:55Z</time>
      </trkpt>
      <trkpt lat="45.692183934152126" lon="10.481002544984221">
        <ele>963.38</ele>
        <time>2021-05-06T10:08:12Z</time>
      </trkpt>
      <trkpt lat="45.692167254164815" lon="10.480858124792576">
        <ele>965.78</ele>
        <time>2021-05-06T10:08:26Z</time>
      </trkpt>
      <trkpt lat="45.69218452088535" lon="10.480710184201598">
        <ele>968.67</ele>
        <time>2021-05-06T10:08:40Z</time>
      </trkpt>
      <trkpt lat="45.69221964105964" lon="10.480622928589582">
        <ele>969.15</ele>
        <time>2021-05-06T10:08:54Z</time>
      </trkpt>
      <trkpt lat="45.692251827567816" lon="10.48043517395854">
        <ele>972.51</ele>
        <time>2021-05-06T10:09:11Z</time>
      </trkpt>
      <trkpt lat="45.69228175096214" lon="10.480275666341186">
        <ele>974.43</ele>
        <time>2021-05-06T10:09:26Z</time>
      </trkpt>
      <trkpt lat="45.69230773486197" lon="10.480085732415318">
        <ele>976.84</ele>
        <time>2021-05-06T10:09:42Z</time>
      </trkpt>
      <trkpt lat="45.69232927635312" lon="10.479859337210655">
        <ele>977.8</ele>
        <time>2021-05-06T10:09:59Z</time>
      </trkpt>
      <trkpt lat="45.6922369915992" lon="10.479619698598981">
        <ele>979.24</ele>
        <time>2021-05-06T10:10:16Z</time>
      </trkpt>
      <trkpt lat="45.69206549786031" lon="10.47944275662303">
        <ele>979.24</ele>
        <time>2021-05-06T10:10:32Z</time>
      </trkpt>
      <trkpt lat="45.69194136187434" lon="10.479251397773623">
        <ele>981.64</ele>
        <time>2021-05-06T10:10:49Z</time>
      </trkpt>
      <trkpt lat="45.69180188700557" lon="10.479149222373962">
        <ele>982.6</ele>
        <time>2021-05-06T10:11:07Z</time>
      </trkpt>
      <trkpt lat="45.69173466414213" lon="10.478973956778646">
        <ele>983.09</ele>
        <time>2021-05-06T10:11:23Z</time>
      </trkpt>
      <trkpt lat="45.69168571382761" lon="10.47899616882205">
        <ele>983.09</ele>
        <time>2021-05-06T10:11:46Z</time>
      </trkpt>
      <trkpt lat="45.69167984649539" lon="10.478895585983992">
        <ele>983.09</ele>
        <time>2021-05-06T10:15:12Z</time>
      </trkpt>
      <trkpt lat="45.69173709489405" lon="10.478771533817053">
        <ele>983.57</ele>
        <time>2021-05-06T10:15:22Z</time>
      </trkpt>
      <trkpt lat="45.69181856699288" lon="10.478538097813725">
        <ele>984.53</ele>
        <time>2021-05-06T10:15:41Z</time>
      </trkpt>
      <trkpt lat="45.6918244343251" lon="10.47846014611423">
        <ele>985.49</ele>
        <time>2021-05-06T10:15:45Z</time>
      </trkpt>
      <trkpt lat="45.691849160939455" lon="10.478104250505567">
        <ele>986.45</ele>
        <time>2021-05-06T10:16:07Z</time>
      </trkpt>
      <trkpt lat="45.69184153340757" lon="10.477831335738301">
        <ele>985.97</ele>
        <time>2021-05-06T10:16:27Z</time>
      </trkpt>
      <trkpt lat="45.69184924475849" lon="10.477735362946987">
        <ele>987.41</ele>
        <time>2021-05-06T10:16:46Z</time>
      </trkpt>
      <trkpt lat="45.69184538908303" lon="10.477737206965685">
        <ele>986.93</ele>
        <time>2021-05-06T10:17:01Z</time>
      </trkpt>
      <trkpt lat="45.691832564771175" lon="10.477574514225125">
        <ele>988.85</ele>
        <time>2021-05-06T10:17:11Z</time>
      </trkpt>
      <trkpt lat="45.69182728417218" lon="10.477541321888566">
        <ele>988.37</ele>
        <time>2021-05-06T10:17:13Z</time>
      </trkpt>
      <trkpt lat="45.69172837771475" lon="10.47732213512063">
        <ele>989.81</ele>
        <time>2021-05-06T10:17:30Z</time>
      </trkpt>
      <trkpt lat="45.69149360060692" lon="10.47716086730361">
        <ele>992.22</ele>
        <time>2021-05-06T10:17:51Z</time>
      </trkpt>
      <trkpt lat="45.69133836776018" lon="10.477091129869223">
        <ele>994.14</ele>
        <time>2021-05-06T10:18:07Z</time>
      </trkpt>
      <trkpt lat="45.69125857204199" lon="10.476990882307291">
        <ele>994.14</ele>
        <time>2021-05-06T10:18:19Z</time>
      </trkpt>
      <trkpt lat="45.69124985486269" lon="10.476902453228831">
        <ele>992.22</ele>
        <time>2021-05-06T10:18:25Z</time>
      </trkpt>
      <trkpt lat="45.69125848822296" lon="10.476866411045194">
        <ele>991.26</ele>
        <time>2021-05-06T10:18:27Z</time>
      </trkpt>
      <trkpt lat="45.69131984375417" lon="10.476715955883265">
        <ele>988.85</ele>
        <time>2021-05-06T10:18:40Z</time>
      </trkpt>
      <trkpt lat="45.69135529920459" lon="10.47666247934103">
        <ele>987.41</ele>
        <time>2021-05-06T10:18:48Z</time>
      </trkpt>
      <trkpt lat="45.691398633643985" lon="10.476547479629517">
        <ele>984.53</ele>
        <time>2021-05-06T10:18:57Z</time>
      </trkpt>
      <trkpt lat="45.69140852428973" lon="10.476543037220836">
        <ele>985.01</ele>
        <time>2021-05-06T10:18:58Z</time>
      </trkpt>
      <trkpt lat="45.69154162891209" lon="10.476434156298637">
        <ele>981.16</ele>
        <time>2021-05-06T10:19:11Z</time>
      </trkpt>
      <trkpt lat="45.69171588867903" lon="10.47633701004088">
        <ele>979.24</ele>
        <time>2021-05-06T10:19:26Z</time>
      </trkpt>
      <trkpt lat="45.691801719367504" lon="10.476266434416175">
        <ele>977.32</ele>
        <time>2021-05-06T10:19:38Z</time>
      </trkpt>
      <trkpt lat="45.69183038547635" lon="10.476141208782792">
        <ele>976.36</ele>
        <time>2021-05-06T10:19:45Z</time>
      </trkpt>
      <trkpt lat="45.6918106880039" lon="10.475808279588819">
        <ele>974.91</ele>
        <time>2021-05-06T10:20:04Z</time>
      </trkpt>
      <trkpt lat="45.69178671576083" lon="10.475660422816873">
        <ele>975.39</ele>
        <time>2021-05-06T10:20:13Z</time>
      </trkpt>
      <trkpt lat="45.69176768884063" lon="10.475603844970465">
        <ele>976.36</ele>
        <time>2021-05-06T10:20:17Z</time>
      </trkpt>
      <trkpt lat="45.691760228946805" lon="10.475427154451609">
        <ele>975.39</ele>
        <time>2021-05-06T10:24:51Z</time>
      </trkpt>
      <trkpt lat="45.69170281291008" lon="10.475328918546438">
        <ele>973.95</ele>
        <time>2021-05-06T10:25:04Z</time>
      </trkpt>
      <trkpt lat="45.69166584871709" lon="10.475305197760463">
        <ele>973.95</ele>
        <time>2021-05-06T10:25:16Z</time>
      </trkpt>
      <trkpt lat="45.6916378531605" lon="10.475317435339093">
        <ele>971.07</ele>
        <time>2021-05-06T11:03:44Z</time>
      </trkpt>
      <trkpt lat="45.69158831611276" lon="10.475314250215888">
        <ele>970.11</ele>
        <time>2021-05-06T11:03:50Z</time>
      </trkpt>
      <trkpt lat="45.691551603376865" lon="10.475259432569146">
        <ele>968.67</ele>
        <time>2021-05-06T11:04:25Z</time>
      </trkpt>
      <trkpt lat="45.69152704440057" lon="10.475184749811888">
        <ele>965.78</ele>
        <time>2021-05-06T11:04:35Z</time>
      </trkpt>
      <trkpt lat="45.69139695726335" lon="10.475120795890689">
        <ele>966.74</ele>
        <time>2021-05-06T11:04:46Z</time>
      </trkpt>
      <trkpt lat="45.6913822889328" lon="10.475117862224579">
        <ele>966.26</ele>
        <time>2021-05-06T11:04:47Z</time>
      </trkpt>
      <trkpt lat="45.69123359397054" lon="10.475077545270324">
        <ele>966.26</ele>
        <time>2021-05-06T11:04:57Z</time>
      </trkpt>
      <trkpt lat="45.6910646148026" lon="10.474994564428926">
        <ele>965.78</ele>
        <time>2021-05-06T11:05:13Z</time>
      </trkpt>
      <trkpt lat="45.690928073599935" lon="10.474811252206564">
        <ele>963.86</ele>
        <time>2021-05-06T11:05:29Z</time>
      </trkpt>
      <trkpt lat="45.69085649214685" lon="10.474761547520757">
        <ele>964.82</ele>
        <time>2021-05-06T11:05:38Z</time>
      </trkpt>
      <trkpt lat="45.69082522764802" lon="10.474711591377854">
        <ele>963.38</ele>
        <time>2021-05-06T11:05:42Z</time>
      </trkpt>
      <trkpt lat="45.690726740285754" lon="10.47467177733779">
        <ele>963.86</ele>
        <time>2021-05-06T11:05:45Z</time>
      </trkpt>
      <trkpt lat="45.69062741473317" lon="10.474662221968174">
        <ele>962.42</ele>
        <time>2021-05-06T11:06:42Z</time>
      </trkpt>
      <trkpt lat="45.690547870472074" lon="10.474733635783195">
        <ele>962.9</ele>
        <time>2021-05-06T11:07:04Z</time>
      </trkpt>
      <trkpt lat="45.690519539639354" lon="10.474753752350807">
        <ele>963.38</ele>
        <time>2021-05-06T11:07:07Z</time>
      </trkpt>
      <trkpt lat="45.69031795486808" lon="10.474868081510067">
        <ele>963.38</ele>
        <time>2021-05-06T11:07:23Z</time>
      </trkpt>
      <trkpt lat="45.69017982110381" lon="10.474758697673678">
        <ele>960.98</ele>
        <time>2021-05-06T11:07:37Z</time>
      </trkpt>
      <trkpt lat="45.69010253995657" lon="10.47468300908804">
        <ele>962.42</ele>
        <time>2021-05-06T11:07:46Z</time>
      </trkpt>
      <trkpt lat="45.6899387575686" lon="10.474722068756819">
        <ele>961.46</ele>
        <time>2021-05-06T11:08:01Z</time>
      </trkpt>
      <trkpt lat="45.68989441730082" lon="10.474746292456985">
        <ele>960.98</ele>
        <time>2021-05-06T11:08:04Z</time>
      </trkpt>
      <trkpt lat="45.68973792716861" lon="10.474849473685026">
        <ele>960.98</ele>
        <time>2021-05-06T11:08:22Z</time>
      </trkpt>
      <trkpt lat="45.68971202708781" lon="10.47484528273344">
        <ele>960.98</ele>
        <time>2021-05-06T11:08:25Z</time>
      </trkpt>
      <trkpt lat="45.68964279256761" lon="10.474832374602556">
        <ele>959.05</ele>
        <time>2021-05-06T11:08:32Z</time>
      </trkpt>
      <trkpt lat="45.68947213701904" lon="10.47477437183261">
        <ele>959.53</ele>
        <time>2021-05-06T11:08:48Z</time>
      </trkpt>
      <trkpt lat="45.68938999436796" lon="10.47472894191742">
        <ele>959.05</ele>
        <time>2021-05-06T11:09:00Z</time>
      </trkpt>
      <trkpt lat="45.68929226137698" lon="10.474802451208234">
        <ele>960.01</ele>
        <time>2021-05-06T11:09:08Z</time>
      </trkpt>
      <trkpt lat="45.68921422585845" lon="10.474915355443954">
        <ele>958.57</ele>
        <time>2021-05-06T11:09:16Z</time>
      </trkpt>
      <trkpt lat="45.689081540331244" lon="10.474998336285353">
        <ele>960.49</ele>
        <time>2021-05-06T11:09:30Z</time>
      </trkpt>
      <trkpt lat="45.68891943432391" lon="10.475057428702712">
        <ele>960.98</ele>
        <time>2021-05-06T11:09:45Z</time>
      </trkpt>
      <trkpt lat="45.68874743767083" lon="10.475131021812558">
        <ele>961.46</ele>
        <time>2021-05-06T11:10:02Z</time>
      </trkpt>
      <trkpt lat="45.68860100582242" lon="10.475109312683344">
        <ele>963.38</ele>
        <time>2021-05-06T11:10:17Z</time>
      </trkpt>
      <trkpt lat="45.688457172364" lon="10.475064301863313">
        <ele>963.38</ele>
        <time>2021-05-06T11:10:32Z</time>
      </trkpt>
      <trkpt lat="45.688354913145304" lon="10.474966820329428">
        <ele>966.74</ele>
        <time>2021-05-06T11:10:45Z</time>
      </trkpt>
      <trkpt lat="45.68833027034998" lon="10.474930442869663">
        <ele>966.26</ele>
        <time>2021-05-06T11:10:49Z</time>
      </trkpt>
      <trkpt lat="45.68826472386718" lon="10.4749078117311">
        <ele>966.26</ele>
        <time>2021-05-06T11:11:03Z</time>
      </trkpt>
      <trkpt lat="45.68823463283479" lon="10.474852323532104">
        <ele>963.38</ele>
        <time>2021-05-06T11:12:16Z</time>
      </trkpt>
      <trkpt lat="45.68818962201476" lon="10.474824663251638">
        <ele>963.38</ele>
        <time>2021-05-06T11:12:22Z</time>
      </trkpt>
      <trkpt lat="45.68815877661109" lon="10.4748301114887">
        <ele>961.94</ele>
        <time>2021-05-06T11:12:25Z</time>
      </trkpt>
      <trkpt lat="45.68793992511928" lon="10.47445921227336">
        <ele>951.36</ele>
        <time>2021-05-06T11:13:23Z</time>
      </trkpt>
      <trkpt lat="45.687938667833805" lon="10.474225776270032">
        <ele>948.96</ele>
        <time>2021-05-06T11:13:38Z</time>
      </trkpt>
      <trkpt lat="45.68794428370893" lon="10.474130809307098">
        <ele>948.0</ele>
        <time>2021-05-06T11:13:44Z</time>
      </trkpt>
      <trkpt lat="45.687930788844824" lon="10.473807603120804">
        <ele>946.07</ele>
        <time>2021-05-06T11:14:00Z</time>
      </trkpt>
      <trkpt lat="45.68783909082413" lon="10.473742978647351">
        <ele>944.63</ele>
        <time>2021-05-06T11:14:13Z</time>
      </trkpt>
      <trkpt lat="45.68781084381044" lon="10.473734261468053">
        <ele>943.67</ele>
        <time>2021-05-06T11:14:18Z</time>
      </trkpt>
      <trkpt lat="45.6876799184829" lon="10.473636277019978">
        <ele>940.79</ele>
        <time>2021-05-06T11:14:34Z</time>
      </trkpt>
      <trkpt lat="45.68756869062781" lon="10.47350107692182">
        <ele>937.42</ele>
        <time>2021-05-06T11:14:48Z</time>
      </trkpt>
      <trkpt lat="45.68753683939576" lon="10.473450114950538">
        <ele>935.98</ele>
        <time>2021-05-06T11:14:53Z</time>
      </trkpt>
      <trkpt lat="45.687530720606446" lon="10.473441984504461">
        <ele>935.98</ele>
        <time>2021-05-06T11:14:54Z</time>
      </trkpt>
      <trkpt lat="45.68744832649827" lon="10.473236124962568">
        <ele>933.58</ele>
        <time>2021-05-06T11:15:08Z</time>
      </trkpt>
      <trkpt lat="45.68740767426789" lon="10.47315171919763">
        <ele>933.1</ele>
        <time>2021-05-06T11:15:21Z</time>
      </trkpt>
      <trkpt lat="45.687352353706956" lon="10.473246099427342">
        <ele>931.65</ele>
        <time>2021-05-06T11:15:32Z</time>
      </trkpt>
      <trkpt lat="45.68734212778509" lon="10.473425891250372">
        <ele>928.77</ele>
        <time>2021-05-06T11:15:44Z</time>
      </trkpt>
      <trkpt lat="45.68733776919544" lon="10.473450031131506">
        <ele>928.77</ele>
        <time>2021-05-06T11:15:46Z</time>
      </trkpt>
      <trkpt lat="45.687266271561384" lon="10.47356167808175">
        <ele>926.37</ele>
        <time>2021-05-06T11:15:55Z</time>
      </trkpt>
      <trkpt lat="45.68726325407624" lon="10.473594283685088">
        <ele>925.89</ele>
        <time>2021-05-06T11:15:57Z</time>
      </trkpt>
      <trkpt lat="45.687232660129666" lon="10.473715821281075">
        <ele>924.45</ele>
        <time>2021-05-06T11:16:04Z</time>
      </trkpt>
      <trkpt lat="45.68719963543117" lon="10.473777512088418">
        <ele>923.0</ele>
        <time>2021-05-06T11:16:09Z</time>
      </trkpt>
      <trkpt lat="45.68717189133167" lon="10.473831575363874">
        <ele>923.0</ele>
        <time>2021-05-06T11:16:13Z</time>
      </trkpt>
      <trkpt lat="45.68709150888026" lon="10.473892595618963">
        <ele>921.08</ele>
        <time>2021-05-06T11:16:22Z</time>
      </trkpt>
      <trkpt lat="45.687034260481596" lon="10.473911119624972">
        <ele>920.12</ele>
        <time>2021-05-06T11:16:28Z</time>
      </trkpt>
      <trkpt lat="45.686922362074256" lon="10.473888907581568">
        <ele>916.27</ele>
        <time>2021-05-06T11:16:37Z</time>
      </trkpt>
      <trkpt lat="45.686900820583105" lon="10.473889075219631">
        <ele>915.79</ele>
        <time>2021-05-06T11:16:39Z</time>
      </trkpt>
      <trkpt lat="45.68678339011967" lon="10.47389636747539">
        <ele>914.35</ele>
        <time>2021-05-06T11:16:48Z</time>
      </trkpt>
      <trkpt lat="45.68672211840749" lon="10.473869796842337">
        <ele>913.39</ele>
        <time>2021-05-06T11:16:53Z</time>
      </trkpt>
      <trkpt lat="45.68669982254505" lon="10.473862839862704">
        <ele>911.95</ele>
        <time>2021-05-06T11:16:55Z</time>
      </trkpt>
      <trkpt lat="45.68659119307995" lon="10.473854038864374">
        <ele>911.47</ele>
        <time>2021-05-06T11:17:05Z</time>
      </trkpt>
      <trkpt lat="45.68641634657979" lon="10.473978174850345">
        <ele>909.06</ele>
        <time>2021-05-06T11:17:21Z</time>
      </trkpt>
      <trkpt lat="45.68636789917946" lon="10.474005416035652">
        <ele>908.1</ele>
        <time>2021-05-06T11:17:27Z</time>
      </trkpt>
      <trkpt lat="45.68634954281151" lon="10.474012289196253">
        <ele>908.1</ele>
        <time>2021-05-06T11:17:28Z</time>
      </trkpt>
      <trkpt lat="45.686098923906684" lon="10.474097365513444">
        <ele>908.1</ele>
        <time>2021-05-06T11:17:39Z</time>
      </trkpt>
      <trkpt lat="45.685923071578145" lon="10.47413382679224">
        <ele>906.66</ele>
        <time>2021-05-06T11:17:53Z</time>
      </trkpt>
      <trkpt lat="45.68575476296246" lon="10.474159056320786">
        <ele>904.26</ele>
        <time>2021-05-06T11:18:06Z</time>
      </trkpt>
      <trkpt lat="45.68573758006096" lon="10.474161487072706">
        <ele>904.26</ele>
        <time>2021-05-06T11:18:07Z</time>
      </trkpt>
      <trkpt lat="45.685602966696024" lon="10.474157044664025">
        <ele>903.78</ele>
        <time>2021-05-06T11:18:15Z</time>
      </trkpt>
      <trkpt lat="45.68550556898117" lon="10.474173305556178">
        <ele>902.33</ele>
        <time>2021-05-06T11:18:23Z</time>
      </trkpt>
      <trkpt lat="45.685395346954465" lon="10.47416073270142">
        <ele>899.45</ele>
        <time>2021-05-06T11:18:31Z</time>
      </trkpt>
      <trkpt lat="45.68520641885698" lon="10.474225105717778">
        <ele>896.57</ele>
        <time>2021-05-06T11:18:46Z</time>
      </trkpt>
      <trkpt lat="45.685056298971176" lon="10.474314540624619">
        <ele>894.64</ele>
        <time>2021-05-06T11:18:59Z</time>
      </trkpt>
      <trkpt lat="45.684943310916424" lon="10.474362736567855">
        <ele>892.72</ele>
        <time>2021-05-06T11:19:12Z</time>
      </trkpt>
      <trkpt lat="45.68486745469272" lon="10.474408166483045">
        <ele>891.28</ele>
        <time>2021-05-06T11:19:25Z</time>
      </trkpt>
      <trkpt lat="45.6847373675555" lon="10.474487543106079">
        <ele>889.36</ele>
        <time>2021-05-06T11:19:39Z</time>
      </trkpt>
      <trkpt lat="45.684662936255336" lon="10.474512102082372">
        <ele>887.43</ele>
        <time>2021-05-06T11:19:48Z</time>
      </trkpt>
      <trkpt lat="45.68450108170509" lon="10.474498607218266">
        <ele>885.99</ele>
        <time>2021-05-06T11:20:02Z</time>
      </trkpt>
      <trkpt lat="45.6843092199415" lon="10.474480502307415">
        <ele>884.07</ele>
        <time>2021-05-06T11:20:14Z</time>
      </trkpt>
      <trkpt lat="45.68423696793616" lon="10.474440352991223">
        <ele>884.55</ele>
        <time>2021-05-06T11:20:21Z</time>
      </trkpt>
      <trkpt lat="45.68411149084568" lon="10.474287634715438">
        <ele>886.47</ele>
        <time>2021-05-06T11:20:34Z</time>
      </trkpt>
      <trkpt lat="45.68401518277824" lon="10.474192751571536">
        <ele>888.4</ele>
        <time>2021-05-06T11:20:43Z</time>
      </trkpt>
      <trkpt lat="45.68392449058592" lon="10.47405218705535">
        <ele>888.4</ele>
        <time>2021-05-06T11:20:53Z</time>
      </trkpt>
      <trkpt lat="45.6838411744684" lon="10.474021844565868">
        <ele>886.47</ele>
        <time>2021-05-06T11:21:09Z</time>
      </trkpt>
      <trkpt lat="45.683745285496116" lon="10.473921932280064">
        <ele>883.59</ele>
        <time>2021-05-06T11:21:26Z</time>
      </trkpt>
      <trkpt lat="45.683668004348874" lon="10.473849009722471">
        <ele>880.22</ele>
        <time>2021-05-06T11:21:33Z</time>
      </trkpt>
      <trkpt lat="45.683627016842365" lon="10.473814057186246">
        <ele>880.22</ele>
        <time>2021-05-06T11:21:37Z</time>
      </trkpt>
      <trkpt lat="45.68351780064404" lon="10.473771896213293">
        <ele>877.34</ele>
        <time>2021-05-06T11:21:46Z</time>
      </trkpt>
      <trkpt lat="45.68341612815857" lon="10.473621105775237">
        <ele>876.38</ele>
        <time>2021-05-06T11:21:57Z</time>
      </trkpt>
      <trkpt lat="45.683295680209994" lon="10.473543405532837">
        <ele>873.5</ele>
        <time>2021-05-06T11:22:08Z</time>
      </trkpt>
      <trkpt lat="45.68326366133988" lon="10.473503926768899">
        <ele>873.01</ele>
        <time>2021-05-06T11:22:11Z</time>
      </trkpt>
      <trkpt lat="45.683145225048065" lon="10.473336288705468">
        <ele>871.09</ele>
        <time>2021-05-06T11:22:24Z</time>
      </trkpt>
      <trkpt lat="45.68300139158964" lon="10.473316004499793">
        <ele>868.69</ele>
        <time>2021-05-06T11:22:37Z</time>
      </trkpt>
      <trkpt lat="45.68294322118163" lon="10.473352549597621">
        <ele>867.73</ele>
        <time>2021-05-06T11:22:42Z</time>
      </trkpt>
      <trkpt lat="45.68286241963506" lon="10.473441816866398">
        <ele>868.21</ele>
        <time>2021-05-06T11:22:48Z</time>
      </trkpt>
      <trkpt lat="45.682832496240735" lon="10.47347073443234">
        <ele>867.25</ele>
        <time>2021-05-06T11:22:50Z</time>
      </trkpt>
      <trkpt lat="45.68279201164842" lon="10.473482301458716">
        <ele>866.77</ele>
        <time>2021-05-06T11:22:53Z</time>
      </trkpt>
      <trkpt lat="45.682754795998335" lon="10.473507447168231">
        <ele>865.8</ele>
        <time>2021-05-06T11:23:08Z</time>
      </trkpt>
      <trkpt lat="45.68273928947747" lon="10.473519181832671">
        <ele>865.32</ele>
        <time>2021-05-06T11:23:14Z</time>
      </trkpt>
      <trkpt lat="45.68272001110017" lon="10.473538292571902">
        <ele>865.32</ele>
        <time>2021-05-06T11:23:16Z</time>
      </trkpt>
      <trkpt lat="45.68266016431153" lon="10.473580956459045">
        <ele>864.84</ele>
        <time>2021-05-06T11:23:22Z</time>
      </trkpt>
      <trkpt lat="45.68250434473157" lon="10.473717162385583">
        <ele>866.29</ele>
        <time>2021-05-06T11:23:38Z</time>
      </trkpt>
      <trkpt lat="45.68238113075495" lon="10.473798047751188">
        <ele>869.65</ele>
        <time>2021-05-06T11:23:49Z</time>
      </trkpt>
      <trkpt lat="45.68219111301005" lon="10.473825205117464">
        <ele>871.09</ele>
        <time>2021-05-06T11:24:05Z</time>
      </trkpt>
      <trkpt lat="45.682116178795695" lon="10.473806010559201">
        <ele>871.09</ele>
        <time>2021-05-06T11:24:11Z</time>
      </trkpt>
      <trkpt lat="45.682088853791356" lon="10.47379033640027">
        <ele>871.09</ele>
        <time>2021-05-06T11:24:14Z</time>
      </trkpt>
      <trkpt lat="45.68185290321708" lon="10.473712971433997">
        <ele>870.61</ele>
        <time>2021-05-06T11:24:31Z</time>
      </trkpt>
      <trkpt lat="45.68167998455465" lon="10.473698889836669">
        <ele>871.57</ele>
        <time>2021-05-06T11:24:47Z</time>
      </trkpt>
      <trkpt lat="45.68152969703078" lon="10.473701572045684">
        <ele>872.53</ele>
        <time>2021-05-06T11:25:00Z</time>
      </trkpt>
      <trkpt lat="45.68130665458739" lon="10.473748594522476">
        <ele>873.5</ele>
        <time>2021-05-06T11:25:16Z</time>
      </trkpt>
      <trkpt lat="45.68118117749691" lon="10.473773824051023">
        <ele>875.42</ele>
        <time>2021-05-06T11:25:25Z</time>
      </trkpt>
      <trkpt lat="45.681008929386735" lon="10.473780864849687">
        <ele>877.82</ele>
        <time>2021-05-06T11:25:40Z</time>
      </trkpt>
      <trkpt lat="45.68097439594567" lon="10.473768459632993">
        <ele>878.3</ele>
        <time>2021-05-06T11:25:56Z</time>
      </trkpt>
      <trkpt lat="45.680997194722295" lon="10.473598223179579">
        <ele>877.82</ele>
        <time>2021-05-06T11:26:09Z</time>
      </trkpt>
      <trkpt lat="45.681038768962026" lon="10.473419353365898">
        <ele>877.82</ele>
        <time>2021-05-06T11:26:20Z</time>
      </trkpt>
      <trkpt lat="45.68098428659141" lon="10.473158843815327">
        <ele>874.94</ele>
        <time>2021-05-06T11:26:33Z</time>
      </trkpt>
      <trkpt lat="45.68095444701612" lon="10.472861034795642">
        <ele>874.94</ele>
        <time>2021-05-06T11:26:48Z</time>
      </trkpt>
      <trkpt lat="45.68094841204584" lon="10.472773863002658">
        <ele>875.42</ele>
        <time>2021-05-06T11:26:53Z</time>
      </trkpt>
      <trkpt lat="45.68092117086053" lon="10.472497595474124">
        <ele>875.42</ele>
        <time>2021-05-06T11:27:08Z</time>
      </trkpt>
      <trkpt lat="45.68087683059275" lon="10.472291735932231">
        <ele>877.34</ele>
        <time>2021-05-06T11:27:20Z</time>
      </trkpt>
      <trkpt lat="45.68086752668023" lon="10.472212694585323">
        <ele>878.78</ele>
        <time>2021-05-06T11:27:25Z</time>
      </trkpt>
      <trkpt lat="45.680851098150015" lon="10.472103897482157">
        <ele>878.78</ele>
        <time>2021-05-06T11:27:30Z</time>
      </trkpt>
      <trkpt lat="45.68081413395703" lon="10.471964087337255">
        <ele>880.71</ele>
        <time>2021-05-06T11:27:38Z</time>
      </trkpt>
      <trkpt lat="45.68080625496805" lon="10.471868952736259">
        <ele>882.15</ele>
        <time>2021-05-06T11:27:43Z</time>
      </trkpt>
      <trkpt lat="45.68078823387623" lon="10.47165060415864">
        <ele>883.59</ele>
        <time>2021-05-06T11:27:57Z</time>
      </trkpt>
      <trkpt lat="45.68078940734267" lon="10.47144491225481">
        <ele>886.47</ele>
        <time>2021-05-06T11:28:11Z</time>
      </trkpt>
      <trkpt lat="45.68086953833699" lon="10.47136478126049">
        <ele>886.47</ele>
        <time>2021-05-06T11:28:24Z</time>
      </trkpt>
      <trkpt lat="45.68098126910627" lon="10.471279118210077">
        <ele>885.51</ele>
        <time>2021-05-06T11:28:37Z</time>
      </trkpt>
      <trkpt lat="45.681114038452506" lon="10.471167638897896">
        <ele>884.07</ele>
        <time>2021-05-06T11:28:48Z</time>
      </trkpt>
      <trkpt lat="45.68125099875033" lon="10.47099681571126">
        <ele>883.59</ele>
        <time>2021-05-06T11:29:01Z</time>
      </trkpt>
      <trkpt lat="45.68126315250993" lon="10.470911907032132">
        <ele>882.63</ele>
        <time>2021-05-06T11:29:07Z</time>
      </trkpt>
      <trkpt lat="45.681340182200074" lon="10.470763463526964">
        <ele>883.11</ele>
        <time>2021-05-06T11:29:16Z</time>
      </trkpt>
      <trkpt lat="45.68139567039907" lon="10.470527848228812">
        <ele>880.71</ele>
        <time>2021-05-06T11:36:45Z</time>
      </trkpt>
      <trkpt lat="45.68139122799039" lon="10.47046372666955">
        <ele>879.74</ele>
        <time>2021-05-06T11:38:57Z</time>
      </trkpt>
      <trkpt lat="45.68138049915433" lon="10.470339423045516">
        <ele>880.22</ele>
        <time>2021-05-06T11:39:08Z</time>
      </trkpt>
      <trkpt lat="45.68139332346618" lon="10.470255939289927">
        <ele>880.22</ele>
        <time>2021-05-06T11:39:14Z</time>
      </trkpt>
      <trkpt lat="45.681405225768685" lon="10.470197098329663">
        <ele>880.22</ele>
        <time>2021-05-06T11:39:17Z</time>
      </trkpt>
      <trkpt lat="45.681398855522275" lon="10.470166085287929">
        <ele>879.26</ele>
        <time>2021-05-06T11:39:19Z</time>
      </trkpt>
      <trkpt lat="45.68140061572194" lon="10.470130713656545">
        <ele>879.74</ele>
        <time>2021-05-06T11:39:21Z</time>
      </trkpt>
      <trkpt lat="45.68141017109156" lon="10.470110177993774">
        <ele>879.74</ele>
        <time>2021-05-06T11:39:22Z</time>
      </trkpt>
      <trkpt lat="45.681416960433125" lon="10.470088133588433">
        <ele>879.74</ele>
        <time>2021-05-06T11:39:23Z</time>
      </trkpt>
      <trkpt lat="45.6814512424171" lon="10.469918232411146">
        <ele>878.78</ele>
        <time>2021-05-06T11:39:35Z</time>
      </trkpt>
      <trkpt lat="45.68145568482578" lon="10.469896355643868">
        <ele>877.34</ele>
        <time>2021-05-06T11:39:36Z</time>
      </trkpt>
      <trkpt lat="45.68149038590491" lon="10.469700554385781">
        <ele>876.86</ele>
        <time>2021-05-06T11:39:46Z</time>
      </trkpt>
      <trkpt lat="45.68150765262544" lon="10.469559906050563">
        <ele>876.38</ele>
        <time>2021-05-06T11:39:54Z</time>
      </trkpt>
      <trkpt lat="45.681520979851484" lon="10.469322362914681">
        <ele>875.9</ele>
        <time>2021-05-06T11:40:09Z</time>
      </trkpt>
      <trkpt lat="45.68152793683112" lon="10.469150030985475">
        <ele>875.9</ele>
        <time>2021-05-06T11:40:18Z</time>
      </trkpt>
      <trkpt lat="45.68152374587953" lon="10.469133434817195">
        <ele>875.42</ele>
        <time>2021-05-06T11:40:19Z</time>
      </trkpt>
      <trkpt lat="45.6815598718822" lon="10.468975184485316">
        <ele>876.38</ele>
        <time>2021-05-06T11:46:42Z</time>
      </trkpt>
      <trkpt lat="45.68152131512761" lon="10.468918522819877">
        <ele>875.9</ele>
        <time>2021-05-06T11:46:53Z</time>
      </trkpt>
      <trkpt lat="45.68148300983012" lon="10.468787597492337">
        <ele>875.42</ele>
        <time>2021-05-06T11:47:05Z</time>
      </trkpt>
      <trkpt lat="45.681440848857164" lon="10.468712914735079">
        <ele>875.42</ele>
        <time>2021-05-06T11:47:17Z</time>
      </trkpt>
      <trkpt lat="45.68144696764648" lon="10.468634376302361">
        <ele>875.42</ele>
        <time>2021-05-06T11:47:29Z</time>
      </trkpt>
      <trkpt lat="45.681434981524944" lon="10.468529602512717">
        <ele>876.38</ele>
        <time>2021-05-06T11:48:22Z</time>
      </trkpt>
      <trkpt lat="45.68146834149957" lon="10.468366239219904">
        <ele>875.42</ele>
        <time>2021-05-06T11:48:50Z</time>
      </trkpt>
      <trkpt lat="45.68145518191159" lon="10.468226429075003">
        <ele>872.53</ele>
        <time>2021-05-06T11:49:00Z</time>
      </trkpt>
      <trkpt lat="45.681419391185045" lon="10.468028448522091">
        <ele>869.65</ele>
        <time>2021-05-06T11:49:15Z</time>
      </trkpt>
      <trkpt lat="45.68138577975333" lon="10.4678397718817">
        <ele>866.77</ele>
        <time>2021-05-06T11:49:29Z</time>
      </trkpt>
      <trkpt lat="45.681354431435466" lon="10.467788642272353">
        <ele>865.32</ele>
        <time>2021-05-06T11:49:34Z</time>
      </trkpt>
      <trkpt lat="45.68123549222946" lon="10.46761061064899">
        <ele>862.44</ele>
        <time>2021-05-06T11:49:49Z</time>
      </trkpt>
      <trkpt lat="45.68120808340609" lon="10.467544225975871">
        <ele>861.0</ele>
        <time>2021-05-06T11:49:53Z</time>
      </trkpt>
      <trkpt lat="45.68117145448923" lon="10.46748362481594">
        <ele>860.52</ele>
        <time>2021-05-06T11:49:57Z</time>
      </trkpt>
      <trkpt lat="45.681091491132975" lon="10.467394944280386">
        <ele>857.63</ele>
        <time>2021-05-06T11:50:05Z</time>
      </trkpt>
      <trkpt lat="45.68103943951428" lon="10.467364434152842">
        <ele>856.19</ele>
        <time>2021-05-06T11:50:10Z</time>
      </trkpt>
      <trkpt lat="45.680958051234484" lon="10.467283045873046">
        <ele>853.79</ele>
        <time>2021-05-06T11:50:26Z</time>
      </trkpt>
      <trkpt lat="45.68090650252998" lon="10.46723392792046">
        <ele>852.35</ele>
        <time>2021-05-06T11:50:39Z</time>
      </trkpt>
      <trkpt lat="45.6807984597981" lon="10.467092860490084">
        <ele>849.46</ele>
        <time>2021-05-06T11:50:53Z</time>
      </trkpt>
      <trkpt lat="45.6807101983577" lon="10.466988673433661">
        <ele>846.1</ele>
        <time>2021-05-06T11:51:05Z</time>
      </trkpt>
      <trkpt lat="45.68061791360378" lon="10.466928407549858">
        <ele>842.73</ele>
        <time>2021-05-06T11:51:14Z</time>
      </trkpt>
      <trkpt lat="45.68056141957641" lon="10.466768816113472">
        <ele>840.81</ele>
        <time>2021-05-06T11:51:27Z</time>
      </trkpt>
      <trkpt lat="45.68065395578742" lon="10.466622803360224">
        <ele>837.45</ele>
        <time>2021-05-06T11:51:41Z</time>
      </trkpt>
      <trkpt lat="45.680657057091594" lon="10.46658894047141">
        <ele>837.45</ele>
        <time>2021-05-06T11:51:43Z</time>
      </trkpt>
      <trkpt lat="45.680692344903946" lon="10.466365478932858">
        <ele>834.08</ele>
        <time>2021-05-06T11:51:56Z</time>
      </trkpt>
      <trkpt lat="45.680715814232826" lon="10.466261208057404">
        <ele>832.64</ele>
        <time>2021-05-06T11:52:02Z</time>
      </trkpt>
      <trkpt lat="45.68073509261012" lon="10.466212425380945">
        <ele>831.68</ele>
        <time>2021-05-06T11:52:05Z</time>
      </trkpt>
      <trkpt lat="45.68077163770795" lon="10.466088959947228">
        <ele>830.72</ele>
        <time>2021-05-06T11:52:13Z</time>
      </trkpt>
      <trkpt lat="45.68078638985753" lon="10.46598695218563">
        <ele>827.35</ele>
        <time>2021-05-06T11:52:20Z</time>
      </trkpt>
      <trkpt lat="45.68078940734267" lon="10.465956022962928">
        <ele>828.31</ele>
        <time>2021-05-06T11:52:22Z</time>
      </trkpt>
      <trkpt lat="45.680801225826144" lon="10.465835155919194">
        <ele>825.91</ele>
        <time>2021-05-06T11:52:30Z</time>
      </trkpt>
      <trkpt lat="45.680779265239835" lon="10.465703140944242">
        <ele>824.95</ele>
        <time>2021-05-06T11:52:38Z</time>
      </trkpt>
      <trkpt lat="45.68072369322181" lon="10.465637007728219">
        <ele>822.55</ele>
        <time>2021-05-06T11:52:43Z</time>
      </trkpt>
      <trkpt lat="45.68071489222348" lon="10.465626446530223">
        <ele>822.06</ele>
        <time>2021-05-06T11:52:44Z</time>
      </trkpt>
      <trkpt lat="45.68068421445787" lon="10.465603480115533">
        <ele>823.51</ele>
        <time>2021-05-06T11:52:47Z</time>
      </trkpt>
      <trkpt lat="45.68062202073634" lon="10.465510776266456">
        <ele>820.62</ele>
        <time>2021-05-06T11:52:56Z</time>
      </trkpt>
      <trkpt lat="45.6805981323123" lon="10.465399716049433">
        <ele>818.22</ele>
        <time>2021-05-06T11:53:05Z</time>
      </trkpt>
      <trkpt lat="45.680597964674234" lon="10.46532679349184">
        <ele>816.78</ele>
        <time>2021-05-06T11:53:09Z</time>
      </trkpt>
      <trkpt lat="45.680598048493266" lon="10.465309526771307">
        <ele>817.74</ele>
        <time>2021-05-06T11:53:10Z</time>
      </trkpt>
      <trkpt lat="45.68061741068959" lon="10.465231742709875">
        <ele>814.85</ele>
        <time>2021-05-06T11:53:14Z</time>
      </trkpt>
      <trkpt lat="45.68065286614001" lon="10.46512939967215">
        <ele>814.37</ele>
        <time>2021-05-06T11:53:22Z</time>
      </trkpt>
      <trkpt lat="45.6806824542582" lon="10.464937957003713">
        <ele>811.97</ele>
        <time>2021-05-06T11:53:32Z</time>
      </trkpt>
      <trkpt lat="45.680707013234496" lon="10.464796051383018">
        <ele>810.53</ele>
        <time>2021-05-06T11:53:41Z</time>
      </trkpt>
      <trkpt lat="45.68078882060945" lon="10.46455716714263">
        <ele>808.61</ele>
        <time>2021-05-06T11:53:56Z</time>
      </trkpt>
      <trkpt lat="45.6808605697006" lon="10.464293221011758">
        <ele>806.2</ele>
        <time>2021-05-06T11:54:12Z</time>
      </trkpt>
      <trkpt lat="45.68092594854534" lon="10.464237900450826">
        <ele>803.8</ele>
        <time>2021-05-06T11:54:19Z</time>
      </trkpt>
      <trkpt lat="45.680863838642836" lon="10.464192973449826">
        <ele>803.32</ele>
        <time>2021-05-06T11:59:17Z</time>
      </trkpt>
      <trkpt lat="45.680846152827144" lon="10.464196410030127">
        <ele>804.28</ele>
        <time>2021-05-06T11:59:24Z</time>
      </trkpt>
      <trkpt lat="45.680694188922644" lon="10.464357761666179">
        <ele>805.72</ele>
        <time>2021-05-06T11:59:40Z</time>
      </trkpt>
      <trkpt lat="45.68057918921113" lon="10.464491453021765">
        <ele>805.72</ele>
        <time>2021-05-06T11:59:55Z</time>
      </trkpt>
      <trkpt lat="45.680569633841515" lon="10.464497236534953">
        <ele>805.72</ele>
        <time>2021-05-06T11:59:58Z</time>
      </trkpt>
      <trkpt lat="45.68046108819544" lon="10.464714579284191">
        <ele>805.72</ele>
        <time>2021-05-06T12:00:15Z</time>
      </trkpt>
      <trkpt lat="45.6803095433861" lon="10.464909374713898">
        <ele>806.68</ele>
        <time>2021-05-06T12:00:30Z</time>
      </trkpt>
      <trkpt lat="45.680180713534355" lon="10.46509126201272">
        <ele>809.09</ele>
        <time>2021-05-06T12:00:46Z</time>
      </trkpt>
      <trkpt lat="45.680150454863906" lon="10.465130070224404">
        <ele>810.05</ele>
        <time>2021-05-06T12:00:50Z</time>
      </trkpt>
      <trkpt lat="45.68005993030965" lon="10.465318411588669">
        <ele>810.53</ele>
        <time>2021-05-06T12:01:05Z</time>
      </trkpt>
      <trkpt lat="45.68004962056875" lon="10.465362165123224">
        <ele>810.05</ele>
        <time>2021-05-06T12:01:08Z</time>
      </trkpt>
      <trkpt lat="45.680047860369086" lon="10.465542543679476">
        <ele>810.05</ele>
        <time>2021-05-06T12:01:23Z</time>
      </trkpt>
      <trkpt lat="45.680033611133695" lon="10.465644467622042">
        <ele>810.53</ele>
        <time>2021-05-06T12:01:29Z</time>
      </trkpt>
      <trkpt lat="45.68002112209797" lon="10.465814201161265">
        <ele>810.05</ele>
        <time>2021-05-06T12:01:46Z</time>
      </trkpt>
      <trkpt lat="45.67998457700014" lon="10.466036321595311">
        <ele>810.05</ele>
        <time>2021-05-06T12:01:59Z</time>
      </trkpt>
      <trkpt lat="45.67990670911968" lon="10.466200271621346">
        <ele>811.97</ele>
        <time>2021-05-06T12:02:13Z</time>
      </trkpt>
      <trkpt lat="45.679857172071934" lon="10.46630747616291">
        <ele>812.45</ele>
        <time>2021-05-06T12:02:20Z</time>
      </trkpt>
      <trkpt lat="45.67982423119247" lon="10.466434881091118">
        <ele>812.93</ele>
        <time>2021-05-06T12:02:28Z</time>
      </trkpt>
      <trkpt lat="45.67979690618813" lon="10.466468408703804">
        <ele>812.93</ele>
        <time>2021-05-06T12:02:32Z</time>
      </trkpt>
      <trkpt lat="45.679666735231876" lon="10.46661626547575">
        <ele>813.89</ele>
        <time>2021-05-06T12:02:49Z</time>
      </trkpt>
      <trkpt lat="45.67950655706227" lon="10.466757165268064">
        <ele>813.89</ele>
        <time>2021-05-06T12:03:05Z</time>
      </trkpt>
      <trkpt lat="45.67929558455944" lon="10.466887336224318">
        <ele>813.89</ele>
        <time>2021-05-06T12:03:21Z</time>
      </trkpt>
      <trkpt lat="45.67925501614809" lon="10.466895550489426">
        <ele>814.37</ele>
        <time>2021-05-06T12:03:24Z</time>
      </trkpt>
      <trkpt lat="45.679061729460955" lon="10.46700862236321">
        <ele>814.37</ele>
        <time>2021-05-06T12:03:42Z</time>
      </trkpt>
      <trkpt lat="45.67890775389969" lon="10.467186234891415">
        <ele>813.41</ele>
        <time>2021-05-06T12:03:59Z</time>
      </trkpt>
      <trkpt lat="45.67884908057749" lon="10.467440960928798">
        <ele>812.93</ele>
        <time>2021-05-06T12:04:16Z</time>
      </trkpt>
      <trkpt lat="45.67863643169403" lon="10.467651849612594">
        <ele>812.93</ele>
        <time>2021-05-06T12:04:33Z</time>
      </trkpt>
      <trkpt lat="45.67863500677049" lon="10.467773471027613">
        <ele>812.45</ele>
        <time>2021-05-06T12:07:05Z</time>
      </trkpt>
      <trkpt lat="45.678621931001544" lon="10.467772716656327">
        <ele>812.45</ele>
        <time>2021-05-06T12:07:18Z</time>
      </trkpt>
      <trkpt lat="45.678632240742445" lon="10.46800347045064">
        <ele>811.97</ele>
        <time>2021-05-06T12:09:33Z</time>
      </trkpt>
      <trkpt lat="45.6786551233381" lon="10.468133222311735">
        <ele>811.97</ele>
        <time>2021-05-06T12:09:41Z</time>
      </trkpt>
      <trkpt lat="45.67872787825763" lon="10.468429941684008">
        <ele>809.57</ele>
        <time>2021-05-06T12:09:59Z</time>
      </trkpt>
      <trkpt lat="45.67877858877182" lon="10.468667736276984">
        <ele>807.64</ele>
        <time>2021-05-06T12:10:15Z</time>
      </trkpt>
      <trkpt lat="45.678728464990854" lon="10.468958672136068">
        <ele>805.72</ele>
        <time>2021-05-06T12:10:33Z</time>
      </trkpt>
      <trkpt lat="45.67872477695346" lon="10.46921281144023">
        <ele>802.84</ele>
        <time>2021-05-06T12:10:49Z</time>
      </trkpt>
      <trkpt lat="45.67876148968935" lon="10.469486396759748">
        <ele>799.95</ele>
        <time>2021-05-06T12:11:06Z</time>
      </trkpt>
      <trkpt lat="45.678753443062305" lon="10.469635426998138">
        <ele>799.47</ele>
        <time>2021-05-06T12:11:27Z</time>
      </trkpt>
      <trkpt lat="45.67876651883125" lon="10.469723856076598">
        <ele>798.99</ele>
        <time>2021-05-06T12:11:42Z</time>
      </trkpt>
      <trkpt lat="45.67879954352975" lon="10.469984197989106">
        <ele>798.03</ele>
        <time>2021-05-06T12:11:57Z</time>
      </trkpt>
      <trkpt lat="45.67880557850003" lon="10.470165247097611">
        <ele>798.03</ele>
        <time>2021-05-06T12:12:06Z</time>
      </trkpt>
      <trkpt lat="45.678803231567144" lon="10.470271361991763">
        <ele>798.51</ele>
        <time>2021-05-06T12:12:11Z</time>
      </trkpt>
      <trkpt lat="45.67879954352975" lon="10.470324754714966">
        <ele>798.51</ele>
        <time>2021-05-06T12:12:14Z</time>
      </trkpt>
      <trkpt lat="45.678849667310715" lon="10.470637315884233">
        <ele>799.47</ele>
        <time>2021-05-06T12:12:30Z</time>
      </trkpt>
      <trkpt lat="45.67882049828768" lon="10.470655336976051">
        <ele>799.47</ele>
        <time>2021-05-06T12:12:47Z</time>
      </trkpt>
      <trkpt lat="45.67880306392908" lon="10.470682326704264">
        <ele>799.47</ele>
        <time>2021-05-06T12:12:57Z</time>
      </trkpt>
      <trkpt lat="45.67874715663493" lon="10.470748795196414">
        <ele>800.44</ele>
        <time>2021-05-06T12:13:07Z</time>
      </trkpt>
      <trkpt lat="45.67873911000788" lon="10.47075055539608">
        <ele>799.95</ele>
        <time>2021-05-06T12:13:10Z</time>
      </trkpt>
      <trkpt lat="45.67868563346565" lon="10.4708116594702">
        <ele>800.44</ele>
        <time>2021-05-06T12:13:17Z</time>
      </trkpt>
      <trkpt lat="45.678525706753135" lon="10.470911990851164">
        <ele>799.95</ele>
        <time>2021-05-06T12:13:29Z</time>
      </trkpt>
      <trkpt lat="45.67836963571608" lon="10.471017016097903">
        <ele>801.88</ele>
        <time>2021-05-06T12:13:40Z</time>
      </trkpt>
      <trkpt lat="45.67824499681592" lon="10.47121717594564">
        <ele>803.8</ele>
        <time>2021-05-06T12:13:55Z</time>
      </trkpt>
      <trkpt lat="45.67823091521859" lon="10.47125875018537">
        <ele>802.84</ele>
        <time>2021-05-06T12:13:58Z</time>
      </trkpt>
      <trkpt lat="45.678037628531456" lon="10.471241232007742">
        <ele>797.07</ele>
        <time>2021-05-06T12:29:03Z</time>
      </trkpt>
      <trkpt lat="45.677942242473364" lon="10.471239304170012">
        <ele>794.67</ele>
        <time>2021-05-06T12:29:12Z</time>
      </trkpt>
      <trkpt lat="45.67791868932545" lon="10.47124844044447">
        <ele>793.22</ele>
        <time>2021-05-06T12:29:14Z</time>
      </trkpt>
      <trkpt lat="45.677779130637646" lon="10.471238549798727">
        <ele>789.86</ele>
        <time>2021-05-06T12:29:25Z</time>
      </trkpt>
      <trkpt lat="45.67773931659758" lon="10.471239136531949">
        <ele>788.9</ele>
        <time>2021-05-06T12:29:29Z</time>
      </trkpt>
      <trkpt lat="45.67768751643598" lon="10.47127383761108">
        <ele>786.98</ele>
        <time>2021-05-06T12:29:34Z</time>
      </trkpt>
      <trkpt lat="45.677707716822624" lon="10.471410127356648">
        <ele>782.65</ele>
        <time>2021-05-06T12:29:44Z</time>
      </trkpt>
      <trkpt lat="45.67769221030176" lon="10.471471399068832">
        <ele>783.13</ele>
        <time>2021-05-06T12:29:48Z</time>
      </trkpt>
      <trkpt lat="45.6775586027652" lon="10.471475841477513">
        <ele>779.77</ele>
        <time>2021-05-06T12:30:02Z</time>
      </trkpt>
      <trkpt lat="45.67739959806204" lon="10.471449354663491">
        <ele>776.4</ele>
        <time>2021-05-06T12:30:14Z</time>
      </trkpt>
      <trkpt lat="45.677298344671726" lon="10.47143711708486">
        <ele>774.0</ele>
        <time>2021-05-06T12:30:22Z</time>
      </trkpt>
      <trkpt lat="45.67717110738158" lon="10.471407193690538">
        <ele>770.63</ele>
        <time>2021-05-06T12:30:33Z</time>
      </trkpt>
      <trkpt lat="45.677160043269396" lon="10.471400152891874">
        <ele>770.15</ele>
        <time>2021-05-06T12:30:34Z</time>
      </trkpt>
      <trkpt lat="45.677113607525826" lon="10.471332091838121">
        <ele>768.71</ele>
        <time>2021-05-06T12:30:39Z</time>
      </trkpt>
      <trkpt lat="45.677043199539185" lon="10.471150623634458">
        <ele>765.35</ele>
        <time>2021-05-06T12:30:55Z</time>
      </trkpt>
      <trkpt lat="45.67702207714319" lon="10.471154479309916">
        <ele>765.83</ele>
        <time>2021-05-06T12:31:00Z</time>
      </trkpt>
      <trkpt lat="45.67698628641665" lon="10.471218768507242">
        <ele>763.9</ele>
        <time>2021-05-06T12:31:05Z</time>
      </trkpt>
      <trkpt lat="45.67692467942834" lon="10.471327565610409">
        <ele>759.58</ele>
        <time>2021-05-06T12:31:13Z</time>
      </trkpt>
      <trkpt lat="45.676908837631345" lon="10.471368972212076">
        <ele>758.62</ele>
        <time>2021-05-06T12:31:16Z</time>
      </trkpt>
      <trkpt lat="45.67690716125071" lon="10.471443990245461">
        <ele>757.66</ele>
        <time>2021-05-06T12:31:21Z</time>
      </trkpt>
      <trkpt lat="45.67690506577492" lon="10.471517415717244">
        <ele>755.25</ele>
        <time>2021-05-06T12:31:25Z</time>
      </trkpt>
      <trkpt lat="45.67691101692617" lon="10.471588326618075">
        <ele>754.77</ele>
        <time>2021-05-06T12:31:30Z</time>
      </trkpt>
      <trkpt lat="45.67691235803068" lon="10.471642138436437">
        <ele>753.81</ele>
        <time>2021-05-06T12:31:33Z</time>
      </trkpt>
      <trkpt lat="45.67691805772483" lon="10.47167843207717">
        <ele>752.85</ele>
        <time>2021-05-06T12:31:35Z</time>
      </trkpt>
      <trkpt lat="45.676926942542195" lon="10.471907425671816">
        <ele>749.49</ele>
        <time>2021-05-06T12:31:48Z</time>
      </trkpt>
      <trkpt lat="45.67691445350647" lon="10.471924524754286">
        <ele>744.68</ele>
        <time>2021-05-06T12:31:58Z</time>
      </trkpt>
      <trkpt lat="45.676914704963565" lon="10.471922094002366">
        <ele>748.52</ele>
        <time>2021-05-06T12:31:59Z</time>
      </trkpt>
      <trkpt lat="45.676904981955886" lon="10.471930895000696">
        <ele>748.04</ele>
        <time>2021-05-06T12:32:14Z</time>
      </trkpt>
      <trkpt lat="45.676923003047705" lon="10.471910443156958">
        <ele>748.52</ele>
        <time>2021-05-06T12:32:23Z</time>
      </trkpt>
      <trkpt lat="45.676921578124166" lon="10.471919579431415">
        <ele>747.56</ele>
        <time>2021-05-06T12:32:48Z</time>
      </trkpt>
      <trkpt lat="45.67689836025238" lon="10.471937768161297">
        <ele>747.56</ele>
        <time>2021-05-06T12:33:09Z</time>
      </trkpt>
      <trkpt lat="45.67687237635255" lon="10.471945563331246">
        <ele>747.56</ele>
        <time>2021-05-06T12:33:14Z</time>
      </trkpt>
      <trkpt lat="45.67682267166674" lon="10.472044218331575">
        <ele>744.2</ele>
        <time>2021-05-06T12:33:24Z</time>
      </trkpt>
      <trkpt lat="45.67680548876524" lon="10.472084619104862">
        <ele>743.24</ele>
        <time>2021-05-06T12:33:40Z</time>
      </trkpt>
      <trkpt lat="45.6767401099205" lon="10.472117643803358">
        <ele>740.83</ele>
        <time>2021-05-06T12:33:52Z</time>
      </trkpt>
      <trkpt lat="45.67669786512852" lon="10.472174054011703">
        <ele>737.47</ele>
        <time>2021-05-06T12:34:00Z</time>
      </trkpt>
      <trkpt lat="45.67664958536625" lon="10.472259214147925">
        <ele>734.58</ele>
        <time>2021-05-06T12:34:07Z</time>
      </trkpt>
      <trkpt lat="45.676632234826684" lon="10.47240455634892">
        <ele>732.18</ele>
        <time>2021-05-06T12:34:19Z</time>
      </trkpt>
      <trkpt lat="45.67666366696358" lon="10.472468677908182">
        <ele>731.22</ele>
        <time>2021-05-06T12:34:24Z</time>
      </trkpt>
      <trkpt lat="45.676713874563575" lon="10.472548641264439">
        <ele>730.26</ele>
        <time>2021-05-06T12:34:39Z</time>
      </trkpt>
      <trkpt lat="45.6767210830003" lon="10.472562806680799">
        <ele>729.78</ele>
        <time>2021-05-06T12:35:03Z</time>
      </trkpt>
      <trkpt lat="45.67654229700565" lon="10.472668837755919">
        <ele>724.49</ele>
        <time>2021-05-06T12:36:51Z</time>
      </trkpt>
      <trkpt lat="45.67644087597728" lon="10.472586527466774">
        <ele>722.57</ele>
        <time>2021-05-06T12:37:08Z</time>
      </trkpt>
      <trkpt lat="45.67640047520399" lon="10.472573367878795">
        <ele>722.09</ele>
        <time>2021-05-06T12:37:17Z</time>
      </trkpt>
      <trkpt lat="45.6763912551105" lon="10.472687780857086">
        <ele>720.65</ele>
        <time>2021-05-06T12:37:26Z</time>
      </trkpt>
      <trkpt lat="45.676394272595644" lon="10.472726002335548">
        <ele>720.16</ele>
        <time>2021-05-06T12:37:28Z</time>
      </trkpt>
      <trkpt lat="45.67641078494489" lon="10.472811162471771">
        <ele>719.68</ele>
        <time>2021-05-06T12:37:36Z</time>
      </trkpt>
      <trkpt lat="45.67643844522536" lon="10.472991205751896">
        <ele>716.8</ele>
        <time>2021-05-06T12:37:49Z</time>
      </trkpt>
      <trkpt lat="45.67644841969013" lon="10.473099499940872">
        <ele>714.88</ele>
        <time>2021-05-06T12:38:01Z</time>
      </trkpt>
      <trkpt lat="45.67642436362803" lon="10.47315658070147">
        <ele>713.44</ele>
        <time>2021-05-06T12:38:07Z</time>
      </trkpt>
      <trkpt lat="45.67640206776559" lon="10.4731653816998">
        <ele>713.44</ele>
        <time>2021-05-06T12:38:09Z</time>
      </trkpt>
      <trkpt lat="45.67638371139765" lon="10.473147612065077">
        <ele>712.47</ele>
        <time>2021-05-06T12:38:11Z</time>
      </trkpt>
      <trkpt lat="45.67637491039932" lon="10.473144594579935">
        <ele>711.51</ele>
        <time>2021-05-06T12:38:12Z</time>
      </trkpt>
      <trkpt lat="45.67627726122737" lon="10.47316831536591">
        <ele>708.15</ele>
        <time>2021-05-06T12:38:22Z</time>
      </trkpt>
      <trkpt lat="45.676180785521865" lon="10.473108384758234">
        <ele>704.78</ele>
        <time>2021-05-06T12:38:31Z</time>
      </trkpt>
      <trkpt lat="45.676122698932886" lon="10.473171584308147">
        <ele>702.86</ele>
        <time>2021-05-06T12:38:38Z</time>
      </trkpt>
      <trkpt lat="45.676145581528544" lon="10.473429998382926">
        <ele>701.9</ele>
        <time>2021-05-06T12:38:54Z</time>
      </trkpt>
      <trkpt lat="45.67624608054757" lon="10.473527563735843">
        <ele>699.5</ele>
        <time>2021-05-06T12:39:06Z</time>
      </trkpt>
      <trkpt lat="45.67642888985574" lon="10.473657315596938">
        <ele>698.05</ele>
        <time>2021-05-06T12:39:23Z</time>
      </trkpt>
      <trkpt lat="45.67660524509847" lon="10.473720179870725">
        <ele>696.13</ele>
        <time>2021-05-06T12:39:37Z</time>
      </trkpt>
      <trkpt lat="45.67678067833185" lon="10.473756389692426">
        <ele>694.69</ele>
        <time>2021-05-06T12:39:51Z</time>
      </trkpt>
      <trkpt lat="45.67690514959395" lon="10.473793521523476">
        <ele>694.21</ele>
        <time>2021-05-06T12:40:05Z</time>
      </trkpt>
      <trkpt lat="45.67696717567742" lon="10.47382545657456">
        <ele>693.73</ele>
        <time>2021-05-06T12:40:19Z</time>
      </trkpt>
      <trkpt lat="45.677018305286765" lon="10.473746247589588">
        <ele>694.69</ele>
        <time>2021-05-06T12:42:25Z</time>
      </trkpt>
      <trkpt lat="45.67714998498559" lon="10.473803412169218">
        <ele>693.25</ele>
        <time>2021-05-06T12:42:42Z</time>
      </trkpt>
      <trkpt lat="45.67725760862231" lon="10.473841046914458">
        <ele>694.69</ele>
        <time>2021-05-06T12:42:56Z</time>
      </trkpt>
      <trkpt lat="45.67744234576821" lon="10.473886476829648">
        <ele>697.09</ele>
        <time>2021-05-06T12:43:12Z</time>
      </trkpt>
      <trkpt lat="45.67757662385702" lon="10.473898379132152">
        <ele>697.57</ele>
        <time>2021-05-06T12:43:27Z</time>
      </trkpt>
      <trkpt lat="45.67758827470243" lon="10.473898882046342">
        <ele>696.61</ele>
        <time>2021-05-06T12:43:28Z</time>
      </trkpt>
      <trkpt lat="45.67772464826703" lon="10.473912209272385">
        <ele>693.73</ele>
        <time>2021-05-06T12:43:40Z</time>
      </trkpt>
      <trkpt lat="45.677751721814275" lon="10.473923524841666">
        <ele>693.25</ele>
        <time>2021-05-06T12:43:42Z</time>
      </trkpt>
      <trkpt lat="45.67792338319123" lon="10.473966524004936">
        <ele>691.81</ele>
        <time>2021-05-06T12:43:56Z</time>
      </trkpt>
      <trkpt lat="45.67797342315316" lon="10.474032238125801">
        <ele>692.29</ele>
        <time>2021-05-06T12:44:10Z</time>
      </trkpt>
      <trkpt lat="45.67798993550241" lon="10.474005248397589">
        <ele>692.29</ele>
        <time>2021-05-06T12:44:30Z</time>
      </trkpt>
      <trkpt lat="45.67798373289406" lon="10.47415092587471">
        <ele>692.77</ele>
        <time>2021-05-06T12:44:56Z</time>
      </trkpt>
      <trkpt lat="45.67799588665366" lon="10.474191578105092">
        <ele>692.77</ele>
        <time>2021-05-06T12:44:58Z</time>
      </trkpt>
      <trkpt lat="45.678040562197566" lon="10.474430629983544">
        <ele>693.73</ele>
        <time>2021-05-06T12:45:13Z</time>
      </trkpt>
      <trkpt lat="45.67806612700224" lon="10.47465618699789">
        <ele>693.73</ele>
        <time>2021-05-06T12:45:28Z</time>
      </trkpt>
      <trkpt lat="45.67796261049807" lon="10.474868081510067">
        <ele>698.05</ele>
        <time>2021-05-06T12:55:35Z</time>
      </trkpt>
      <trkpt lat="45.67794660106301" lon="10.474883085116744">
        <ele>694.69</ele>
        <time>2021-05-06T12:55:38Z</time>
      </trkpt>
      <trkpt lat="45.67794006317854" lon="10.4748853482306">
        <ele>695.17</ele>
        <time>2021-05-06T12:55:39Z</time>
      </trkpt>
      <trkpt lat="45.677922293543816" lon="10.474956510588527">
        <ele>692.77</ele>
        <time>2021-05-06T12:55:52Z</time>
      </trkpt>
      <trkpt lat="45.67785892635584" lon="10.47500655055046">
        <ele>690.36</ele>
        <time>2021-05-06T12:56:01Z</time>
      </trkpt>
      <trkpt lat="45.677808970212936" lon="10.475086849182844">
        <ele>688.44</ele>
        <time>2021-05-06T12:56:14Z</time>
      </trkpt>
      <trkpt lat="45.67775675095618" lon="10.47512968070805">
        <ele>685.08</ele>
        <time>2021-05-06T12:56:20Z</time>
      </trkpt>
      <trkpt lat="45.67772163078189" lon="10.475248284637928">
        <ele>681.71</ele>
        <time>2021-05-06T12:56:31Z</time>
      </trkpt>
      <trkpt lat="45.67771819420159" lon="10.47535641118884">
        <ele>680.27</ele>
        <time>2021-05-06T12:56:43Z</time>
      </trkpt>
      <trkpt lat="45.67767335101962" lon="10.475462023168802">
        <ele>677.87</ele>
        <time>2021-05-06T12:58:48Z</time>
      </trkpt>
      <trkpt lat="45.67766639403999" lon="10.475498400628567">
        <ele>677.39</ele>
        <time>2021-05-06T12:58:50Z</time>
      </trkpt>
      <trkpt lat="45.67764937877655" lon="10.475676180794835">
        <ele>674.02</ele>
        <time>2021-05-06T12:59:01Z</time>
      </trkpt>
      <trkpt lat="45.67765323445201" lon="10.475791180506349">
        <ele>670.66</ele>
        <time>2021-05-06T12:59:09Z</time>
      </trkpt>
      <trkpt lat="45.67765583284199" lon="10.4759231954813">
        <ele>668.25</ele>
        <time>2021-05-06T12:59:22Z</time>
      </trkpt>
      <trkpt lat="45.67764166742563" lon="10.476001063361764">
        <ele>665.85</ele>
        <time>2021-05-06T12:59:29Z</time>
      </trkpt>
      <trkpt lat="45.67761166021228" lon="10.476107094436884">
        <ele>662.49</ele>
        <time>2021-05-06T12:59:37Z</time>
      </trkpt>
      <trkpt lat="45.67759657278657" lon="10.476154536008835">
        <ele>660.56</ele>
        <time>2021-05-06T12:59:43Z</time>
      </trkpt>
      <trkpt lat="45.677564553916454" lon="10.476254364475608">
        <ele>657.2</ele>
        <time>2021-05-06T12:59:53Z</time>
      </trkpt>
      <trkpt lat="45.67751216702163" lon="10.476203402504325">
        <ele>654.31</ele>
        <time>2021-05-06T13:00:02Z</time>
      </trkpt>
      <trkpt lat="45.67748224362731" lon="10.476209605112672">
        <ele>652.87</ele>
        <time>2021-05-06T13:00:06Z</time>
      </trkpt>
      <trkpt lat="45.677438993006945" lon="10.476196529343724">
        <ele>649.99</ele>
        <time>2021-05-06T13:01:40Z</time>
      </trkpt>
      <trkpt lat="45.677406219765544" lon="10.476158643141389">
        <ele>649.03</ele>
        <time>2021-05-06T13:02:40Z</time>
      </trkpt>
      <trkpt lat="45.677378391847014" lon="10.476079182699323">
        <ele>648.55</ele>
        <time>2021-05-06T13:02:50Z</time>
      </trkpt>
      <trkpt lat="45.677311001345515" lon="10.475977761670947">
        <ele>644.7</ele>
        <time>2021-05-06T13:03:00Z</time>
      </trkpt>
      <trkpt lat="45.67729867994785" lon="10.475965356454253">
        <ele>644.7</ele>
        <time>2021-05-06T13:03:01Z</time>
      </trkpt>
      <trkpt lat="45.67714705131948" lon="10.476080691441894">
        <ele>641.34</ele>
        <time>2021-05-06T13:03:16Z</time>
      </trkpt>
      <trkpt lat="45.67710245959461" lon="10.476250173524022">
        <ele>637.97</ele>
        <time>2021-05-06T13:03:30Z</time>
      </trkpt>
      <trkpt lat="45.677105728536844" lon="10.476295771077275">
        <ele>637.97</ele>
        <time>2021-05-06T13:03:33Z</time>
      </trkpt>
      <trkpt lat="45.677119391039014" lon="10.476373555138707">
        <ele>636.05</ele>
        <time>2021-05-06T13:03:38Z</time>
      </trkpt>
      <trkpt lat="45.67716230638325" lon="10.476533062756062">
        <ele>634.13</ele>
        <time>2021-05-06T13:03:47Z</time>
      </trkpt>
      <trkpt lat="45.67716063000262" lon="10.476634986698627">
        <ele>632.68</ele>
        <time>2021-05-06T13:03:54Z</time>
      </trkpt>
      <trkpt lat="45.67713439464569" lon="10.476722158491611">
        <ele>631.72</ele>
        <time>2021-05-06T13:03:59Z</time>
      </trkpt>
      <trkpt lat="45.677090138196945" lon="10.476800613105297">
        <ele>629.8</ele>
        <time>2021-05-06T13:04:04Z</time>
      </trkpt>
      <trkpt lat="45.67700539715588" lon="10.47695224173367">
        <ele>626.44</ele>
        <time>2021-05-06T13:04:17Z</time>
      </trkpt>
      <trkpt lat="45.67697019316256" lon="10.476971855387092">
        <ele>625.96</ele>
        <time>2021-05-06T13:04:22Z</time>
      </trkpt>
      <trkpt lat="45.67674446851015" lon="10.477047124877572">
        <ele>622.59</ele>
        <time>2021-05-06T13:04:39Z</time>
      </trkpt>
      <trkpt lat="45.676690489053726" lon="10.47705139964819">
        <ele>621.63</ele>
        <time>2021-05-06T13:04:44Z</time>
      </trkpt>
      <trkpt lat="45.67663189955056" lon="10.477088950574398">
        <ele>619.71</ele>
        <time>2021-05-06T13:04:50Z</time>
      </trkpt>
      <trkpt lat="45.67653953097761" lon="10.477210907265544">
        <ele>619.71</ele>
        <time>2021-05-06T13:06:30Z</time>
      </trkpt>
      <trkpt lat="45.67645797505975" lon="10.477220127359033">
        <ele>617.78</ele>
        <time>2021-05-06T13:06:36Z</time>
      </trkpt>
      <trkpt lat="45.67633677273989" lon="10.477275112643838">
        <ele>614.9</ele>
        <time>2021-05-06T13:06:45Z</time>
      </trkpt>
      <trkpt lat="45.67617651075125" lon="10.477410312741995">
        <ele>612.5</ele>
        <time>2021-05-06T13:06:57Z</time>
      </trkpt>
      <trkpt lat="45.67614088766277" lon="10.477444175630808">
        <ele>612.02</ele>
        <time>2021-05-06T13:07:00Z</time>
      </trkpt>
      <trkpt lat="45.67611020989716" lon="10.477488851174712">
        <ele>611.06</ele>
        <time>2021-05-06T13:07:03Z</time>
      </trkpt>
      <trkpt lat="45.67606964148581" lon="10.477733770385385">
        <ele>609.13</ele>
        <time>2021-05-06T13:07:18Z</time>
      </trkpt>
      <trkpt lat="45.67606226541102" lon="10.47785421833396">
        <ele>608.17</ele>
        <time>2021-05-06T13:07:31Z</time>
      </trkpt>
      <trkpt lat="45.676052290946245" lon="10.477869305759668">
        <ele>608.17</ele>
        <time>2021-05-06T13:07:45Z</time>
      </trkpt>
      <trkpt lat="45.676041059195995" lon="10.477944910526276">
        <ele>607.69</ele>
        <time>2021-05-06T13:07:57Z</time>
      </trkpt>
      <trkpt lat="45.67603971809149" lon="10.47796812839806">
        <ele>608.17</ele>
        <time>2021-05-06T13:08:43Z</time>
      </trkpt>
      <trkpt lat="45.6760838907212" lon="10.478073321282864">
        <ele>607.69</ele>
        <time>2021-05-06T13:09:03Z</time>
      </trkpt>
      <trkpt lat="45.67609244026244" lon="10.478121098130941">
        <ele>607.69</ele>
        <time>2021-05-06T13:09:07Z</time>
      </trkpt>
      <trkpt lat="45.67601474002004" lon="10.47838102094829">
        <ele>606.73</ele>
        <time>2021-05-06T13:09:22Z</time>
      </trkpt>
      <trkpt lat="45.6759715732187" lon="10.478564081713557">
        <ele>608.17</ele>
        <time>2021-05-06T13:09:31Z</time>
      </trkpt>
      <trkpt lat="45.675987750291824" lon="10.478667682036757">
        <ele>607.69</ele>
        <time>2021-05-06T13:09:35Z</time>
      </trkpt>
      <trkpt lat="45.67606905475259" lon="10.478953421115875">
        <ele>606.25</ele>
        <time>2021-05-06T13:09:51Z</time>
      </trkpt>
      <trkpt lat="45.67615186795592" lon="10.479230359196663">
        <ele>604.81</ele>
        <time>2021-05-06T13:10:07Z</time>
      </trkpt>
      <trkpt lat="45.67629083991051" lon="10.479586673900485">
        <ele>603.85</ele>
        <time>2021-05-06T13:10:27Z</time>
      </trkpt>
      <trkpt lat="45.67626368254423" lon="10.479879789054394">
        <ele>604.33</ele>
        <time>2021-05-06T13:10:44Z</time>
      </trkpt>
      <trkpt lat="45.67626426927745" lon="10.479951286688447">
        <ele>605.29</ele>
        <time>2021-05-06T13:10:49Z</time>
      </trkpt>
      <trkpt lat="45.67620945163071" lon="10.480089001357555">
        <ele>606.25</ele>
        <time>2021-05-06T13:10:59Z</time>
      </trkpt>
      <trkpt lat="45.67608581855893" lon="10.48030324280262">
        <ele>608.17</ele>
        <time>2021-05-06T13:11:15Z</time>
      </trkpt>
      <trkpt lat="45.676038125529885" lon="10.480469623580575">
        <ele>608.17</ele>
        <time>2021-05-06T13:11:32Z</time>
      </trkpt>
      <trkpt lat="45.67603292874992" lon="10.480588730424643">
        <ele>608.65</ele>
        <time>2021-05-06T13:11:57Z</time>
      </trkpt>
      <trkpt lat="45.675849029794335" lon="10.480749495327473">
        <ele>609.61</ele>
        <time>2021-05-06T13:12:14Z</time>
      </trkpt>
      <trkpt lat="45.67575121298432" lon="10.480811102315784">
        <ele>611.54</ele>
        <time>2021-05-06T13:12:29Z</time>
      </trkpt>
      <trkpt lat="45.6757056992501" lon="10.480997515842319">
        <ele>612.98</ele>
        <time>2021-05-06T13:12:44Z</time>
      </trkpt>
      <trkpt lat="45.67571089603007" lon="10.48100933432579">
        <ele>612.98</ele>
        <time>2021-05-06T13:12:45Z</time>
      </trkpt>
      <trkpt lat="45.6758610997349" lon="10.481139840558171">
        <ele>613.94</ele>
        <time>2021-05-06T13:13:05Z</time>
      </trkpt>
      <trkpt lat="45.67600124515593" lon="10.481349807232618">
        <ele>614.9</ele>
        <time>2021-05-06T13:13:20Z</time>
      </trkpt>
      <trkpt lat="45.67614742554724" lon="10.481572262942791">
        <ele>612.98</ele>
        <time>2021-05-06T13:13:39Z</time>
      </trkpt>
      <trkpt lat="45.676160249859095" lon="10.481725316494703">
        <ele>610.57</ele>
        <time>2021-05-06T13:13:47Z</time>
      </trkpt>
      <trkpt lat="45.67619193345308" lon="10.482015833258629">
        <ele>609.61</ele>
        <time>2021-05-06T13:14:01Z</time>
      </trkpt>
      <trkpt lat="45.67621825262904" lon="10.482069058343768">
        <ele>608.65</ele>
        <time>2021-05-06T13:14:04Z</time>
      </trkpt>
      <trkpt lat="45.67626644857228" lon="10.482286736369133">
        <ele>607.21</ele>
        <time>2021-05-06T13:14:16Z</time>
      </trkpt>
      <trkpt lat="45.676252115517855" lon="10.48235253430903">
        <ele>606.73</ele>
        <time>2021-05-06T13:14:19Z</time>
      </trkpt>
      <trkpt lat="45.67618799395859" lon="10.482518328353763">
        <ele>606.73</ele>
        <time>2021-05-06T13:14:28Z</time>
      </trkpt>
      <trkpt lat="45.676192520186305" lon="10.482548251748085">
        <ele>606.73</ele>
        <time>2021-05-06T13:14:29Z</time>
      </trkpt>
      <trkpt lat="45.676234513521194" lon="10.482760313898325">
        <ele>604.81</ele>
        <time>2021-05-06T13:14:43Z</time>
      </trkpt>
      <trkpt lat="45.67623275332153" lon="10.482770288363099">
        <ele>604.81</ele>
        <time>2021-05-06T13:14:44Z</time>
      </trkpt>
      <trkpt lat="45.67620509304106" lon="10.482848742976785">
        <ele>603.85</ele>
        <time>2021-05-06T13:14:54Z</time>
      </trkpt>
      <trkpt lat="45.67613024264574" lon="10.48289442434907">
        <ele>604.81</ele>
        <time>2021-05-06T13:15:05Z</time>
      </trkpt>
      <trkpt lat="45.675976602360606" lon="10.482963072136045">
        <ele>606.25</ele>
        <time>2021-05-06T13:15:18Z</time>
      </trkpt>
      <trkpt lat="45.67581784911454" lon="10.483132638037205">
        <ele>607.21</ele>
        <time>2021-05-06T13:15:33Z</time>
      </trkpt>
      <trkpt lat="45.67569480277598" lon="10.483174044638872">
        <ele>607.21</ele>
        <time>2021-05-06T13:15:43Z</time>
      </trkpt>
      <trkpt lat="45.67542314529419" lon="10.483413767069578">
        <ele>607.21</ele>
        <time>2021-05-06T13:16:03Z</time>
      </trkpt>
      <trkpt lat="45.67534016445279" lon="10.483489707112312">
        <ele>606.73</ele>
        <time>2021-05-06T13:16:10Z</time>
      </trkpt>
      <trkpt lat="45.675235306844115" lon="10.483678299933672">
        <ele>603.36</ele>
        <time>2021-05-06T13:16:21Z</time>
      </trkpt>
      <trkpt lat="45.6752690859139" lon="10.483871586620808">
        <ele>601.92</ele>
        <time>2021-05-06T13:16:31Z</time>
      </trkpt>
      <trkpt lat="45.675357934087515" lon="10.484098652377725">
        <ele>598.08</ele>
        <time>2021-05-06T13:16:45Z</time>
      </trkpt>
      <trkpt lat="45.67552565596998" lon="10.48438724130392">
        <ele>594.71</ele>
        <time>2021-05-06T13:17:04Z</time>
      </trkpt>
      <trkpt lat="45.675741070881486" lon="10.48463542945683">
        <ele>592.79</ele>
        <time>2021-05-06T13:17:24Z</time>
      </trkpt>
      <trkpt lat="45.675783567130566" lon="10.484765684232116">
        <ele>591.83</ele>
        <time>2021-05-06T13:17:33Z</time>
      </trkpt>
      <trkpt lat="45.67573788575828" lon="10.48487925902009">
        <ele>590.87</ele>
        <time>2021-05-06T13:17:40Z</time>
      </trkpt>
      <trkpt lat="45.67554744891822" lon="10.4852188937366">
        <ele>589.91</ele>
        <time>2021-05-06T13:18:01Z</time>
      </trkpt>
      <trkpt lat="45.67551207728684" lon="10.485402960330248">
        <ele>589.91</ele>
        <time>2021-05-06T13:18:16Z</time>
      </trkpt>
      <trkpt lat="45.675512412562966" lon="10.485708899796009">
        <ele>588.95</ele>
        <time>2021-05-06T13:18:34Z</time>
      </trkpt>
      <trkpt lat="45.67570134066045" lon="10.485759694129229">
        <ele>584.62</ele>
        <time>2021-05-06T13:18:48Z</time>
      </trkpt>
      <trkpt lat="45.67583452910185" lon="10.485937222838402">
        <ele>581.25</ele>
        <time>2021-05-06T13:19:02Z</time>
      </trkpt>
      <trkpt lat="45.67585129290819" lon="10.486187590286136">
        <ele>578.85</ele>
        <time>2021-05-06T13:19:18Z</time>
      </trkpt>
      <trkpt lat="45.6758473534137" lon="10.486237378790975">
        <ele>578.37</ele>
        <time>2021-05-06T13:19:21Z</time>
      </trkpt>
      <trkpt lat="45.67581885494292" lon="10.486608445644379">
        <ele>577.41</ele>
        <time>2021-05-06T13:19:39Z</time>
      </trkpt>
      <trkpt lat="45.675907200202346" lon="10.487014381214976">
        <ele>575.49</ele>
        <time>2021-05-06T13:20:00Z</time>
      </trkpt>
      <trkpt lat="45.675897393375635" lon="10.487160980701447">
        <ele>574.04</ele>
        <time>2021-05-06T13:20:09Z</time>
      </trkpt>
      <trkpt lat="45.67575607448816" lon="10.487406570464373">
        <ele>572.12</ele>
        <time>2021-05-06T13:20:26Z</time>
      </trkpt>
      <trkpt lat="45.67573042586446" lon="10.487426687031984">
        <ele>570.68</ele>
        <time>2021-05-06T13:20:28Z</time>
      </trkpt>
      <trkpt lat="45.67566194571555" lon="10.487460633739829">
        <ele>569.72</ele>
        <time>2021-05-06T13:20:34Z</time>
      </trkpt>
      <trkpt lat="45.675644343718886" lon="10.487481001764536">
        <ele>569.24</ele>
        <time>2021-05-06T13:20:36Z</time>
      </trkpt>
      <trkpt lat="45.67556647583842" lon="10.487545458599925">
        <ele>566.35</ele>
        <time>2021-05-06T13:20:43Z</time>
      </trkpt>
      <trkpt lat="45.67546421661973" lon="10.487647047266364">
        <ele>565.39</ele>
        <time>2021-05-06T13:20:52Z</time>
      </trkpt>
      <trkpt lat="45.675437562167645" lon="10.487870341166854">
        <ele>562.99</ele>
        <time>2021-05-06T13:21:03Z</time>
      </trkpt>
      <trkpt lat="45.675521129742265" lon="10.488219698891044">
        <ele>561.07</ele>
        <time>2021-05-06T13:21:21Z</time>
      </trkpt>
      <trkpt lat="45.67551031708717" lon="10.488267475739121">
        <ele>560.11</ele>
        <time>2021-05-06T13:21:24Z</time>
      </trkpt>
      <trkpt lat="45.675345780327916" lon="10.488493787124753">
        <ele>558.18</ele>
        <time>2021-05-06T13:21:40Z</time>
      </trkpt>
      <trkpt lat="45.67512961104512" lon="10.488563189283013">
        <ele>555.78</ele>
        <time>2021-05-06T13:21:57Z</time>
      </trkpt>
      <trkpt lat="45.67496633157134" lon="10.488708196207881">
        <ele>552.9</ele>
        <time>2021-05-06T13:22:12Z</time>
      </trkpt>
      <trkpt lat="45.67497605457902" lon="10.488769048824906">
        <ele>552.41</ele>
        <time>2021-05-06T13:25:16Z</time>
      </trkpt>
      <trkpt lat="45.674977228045464" lon="10.488785058259964">
        <ele>552.9</ele>
        <time>2021-05-06T13:25:23Z</time>
      </trkpt>
      <trkpt lat="45.67494286224246" lon="10.488837864249945">
        <ele>551.93</ele>
        <time>2021-05-06T13:25:37Z</time>
      </trkpt>
      <trkpt lat="45.67490170709789" lon="10.48908680677414">
        <ele>549.53</ele>
        <time>2021-05-06T13:25:51Z</time>
      </trkpt>
      <trkpt lat="45.67490832880139" lon="10.48934480175376">
        <ele>546.65</ele>
        <time>2021-05-06T13:26:05Z</time>
      </trkpt>
      <trkpt lat="45.6749564409256" lon="10.489596091210842">
        <ele>544.72</ele>
        <time>2021-05-06T13:26:18Z</time>
      </trkpt>
      <trkpt lat="45.67499407567084" lon="10.489699188619852">
        <ele>543.28</ele>
        <time>2021-05-06T13:26:24Z</time>
      </trkpt>
      <trkpt lat="45.6750151142478" lon="10.489743947982788">
        <ele>542.32</ele>
        <time>2021-05-06T13:26:27Z</time>
      </trkpt>
      <trkpt lat="45.67505861632526" lon="10.489892475306988">
        <ele>541.36</ele>
        <time>2021-05-06T13:26:36Z</time>
      </trkpt>
      <trkpt lat="45.67511821165681" lon="10.489988448098302">
        <ele>538.96</ele>
        <time>2021-05-06T13:26:44Z</time>
      </trkpt>
      <trkpt lat="45.67515064962208" lon="10.490103531628847">
        <ele>537.51</ele>
        <time>2021-05-06T13:26:51Z</time>
      </trkpt>
      <trkpt lat="45.67504093050957" lon="10.490390611812472">
        <ele>535.59</ele>
        <time>2021-05-06T13:27:07Z</time>
      </trkpt>
      <trkpt lat="45.67501469515264" lon="10.490633267909288">
        <ele>533.67</ele>
        <time>2021-05-06T13:27:19Z</time>
      </trkpt>
      <trkpt lat="45.67514268681407" lon="10.49081758596003">
        <ele>530.79</ele>
        <time>2021-05-06T13:27:33Z</time>
      </trkpt>
      <trkpt lat="45.675188452005386" lon="10.490838205441833">
        <ele>528.86</ele>
        <time>2021-05-06T13:27:37Z</time>
      </trkpt>
      <trkpt lat="45.675282664597034" lon="10.49095286987722">
        <ele>526.94</ele>
        <time>2021-05-06T13:27:46Z</time>
      </trkpt>
      <trkpt lat="45.67530051805079" lon="10.49098421819508">
        <ele>526.46</ele>
        <time>2021-05-06T13:27:48Z</time>
      </trkpt>
      <trkpt lat="45.67540504038334" lon="10.491047166287899">
        <ele>524.54</ele>
        <time>2021-05-06T13:27:57Z</time>
      </trkpt>
      <trkpt lat="45.675434125587344" lon="10.49104138277471">
        <ele>524.06</ele>
        <time>2021-05-06T13:28:11Z</time>
      </trkpt>
      <trkpt lat="45.67542616277933" lon="10.491081615909934">
        <ele>524.06</ele>
        <time>2021-05-06T13:28:31Z</time>
      </trkpt>
      <trkpt lat="45.67552532069385" lon="10.491111623123288">
        <ele>522.61</ele>
        <time>2021-05-06T13:28:47Z</time>
      </trkpt>
      <trkpt lat="45.675542671233416" lon="10.491124698892236">
        <ele>523.09</ele>
        <time>2021-05-06T13:28:50Z</time>
      </trkpt>
      <trkpt lat="45.67558885551989" lon="10.49109854735434">
        <ele>521.65</ele>
        <time>2021-05-06T13:29:04Z</time>
      </trkpt>
      <trkpt lat="45.67561467178166" lon="10.491109024733305">
        <ele>521.65</ele>
        <time>2021-05-06T13:29:07Z</time>
      </trkpt>
      <trkpt lat="45.675657503306866" lon="10.49112101085484">
        <ele>520.21</ele>
        <time>2021-05-06T13:29:12Z</time>
      </trkpt>
      <trkpt lat="45.675714081153274" lon="10.491260904818773">
        <ele>519.73</ele>
        <time>2021-05-06T13:29:16Z</time>
      </trkpt>
    </trkseg>
  </trk>
</gpx>
